<?xml version="1.0" encoding="UTF-8" standalone="no" ?>
<gpx xmlns="http://www.topografix.com/GPX/1/1" xmlns:xsi="http://www.w3.org/2001/XMLSchema-instance" xsi:schemaLocation="http://www.topografix.com/GPX/1/1 http://www.topografix.com/GPX/1/1/gpx.xsd" version="1.1" creator="VisuGPX - https://www.visugpx.com">
  <metadata>
    <name>col Aoube 1460m 2369m</name>
    <desc><![CDATA[description à venir
[url][/url]
[img][/img]]]></desc>
  </metadata>
  <trk>
    <name><![CDATA[col d'Aoube 1460m 2369m]]></name>
    <trkseg>
      <trkpt lat="42.90322" lon="0.10177">
        <ele>1251</ele>
        <time>2009-02-05T12:19:38Z</time>
      </trkpt>
      <trkpt lat="42.90481" lon="0.10287">
        <ele>1481</ele>
        <time>2009-02-05T12:29:47Z</time>
      </trkpt>
      <trkpt lat="42.90489" lon="0.10293">
        <ele>1480</ele>
        <time>2009-02-05T12:29:54Z</time>
      </trkpt>
      <trkpt lat="42.90492" lon="0.10289">
        <ele>1480</ele>
        <time>2009-02-05T12:30:00Z</time>
      </trkpt>
      <trkpt lat="42.90492" lon="0.10287">
        <ele>1479</ele>
        <time>2009-02-05T12:30:04Z</time>
      </trkpt>
      <trkpt lat="42.90509" lon="0.10278">
        <ele>1479</ele>
        <time>2009-02-05T12:30:28Z</time>
      </trkpt>
      <trkpt lat="42.90513" lon="0.10278">
        <ele>1482</ele>
        <time>2009-02-05T12:30:41Z</time>
      </trkpt>
      <trkpt lat="42.90513" lon="0.1028">
        <ele>1480</ele>
        <time>2009-02-05T12:30:53Z</time>
      </trkpt>
      <trkpt lat="42.90489" lon="0.10283">
        <ele>1479</ele>
        <time>2009-02-05T12:32:15Z</time>
      </trkpt>
      <trkpt lat="42.90474" lon="0.10283">
        <ele>1480</ele>
        <time>2009-02-05T12:32:54Z</time>
      </trkpt>
      <trkpt lat="42.90466" lon="0.10283">
        <ele>1479</ele>
        <time>2009-02-05T12:33:25Z</time>
      </trkpt>
      <trkpt lat="42.90485" lon="0.10295">
        <ele>1471</ele>
        <time>2009-02-05T12:35:26Z</time>
      </trkpt>
      <trkpt lat="42.90483" lon="0.103">
        <ele>1471</ele>
        <time>2009-02-05T12:35:28Z</time>
      </trkpt>
      <trkpt lat="42.90483" lon="0.10304">
        <ele>1471</ele>
        <time>2009-02-05T12:35:31Z</time>
      </trkpt>
      <trkpt lat="42.90479" lon="0.10321">
        <ele>1471</ele>
        <time>2009-02-05T12:35:45Z</time>
      </trkpt>
      <trkpt lat="42.90479" lon="0.10321">
        <ele>1471</ele>
        <time>2009-02-05T12:35:46Z</time>
      </trkpt>
      <trkpt lat="42.90477" lon="0.10325">
        <ele>1471</ele>
        <time>2009-02-05T12:36:00Z</time>
      </trkpt>
      <trkpt lat="42.90472" lon="0.10334">
        <ele>1472</ele>
        <time>2009-02-05T12:36:41Z</time>
      </trkpt>
      <trkpt lat="42.90472" lon="0.10338">
        <ele>1472</ele>
        <time>2009-02-05T12:36:47Z</time>
      </trkpt>
      <trkpt lat="42.90474" lon="0.10338">
        <ele>1473</ele>
        <time>2009-02-05T12:37:01Z</time>
      </trkpt>
      <trkpt lat="42.90479" lon="0.10328">
        <ele>1475</ele>
        <time>2009-02-05T12:37:12Z</time>
      </trkpt>
      <trkpt lat="42.90481" lon="0.10319">
        <ele>1475</ele>
        <time>2009-02-05T12:37:31Z</time>
      </trkpt>
      <trkpt lat="42.90489" lon="0.10368">
        <ele>1482</ele>
        <time>2009-02-05T12:38:47Z</time>
      </trkpt>
      <trkpt lat="42.90489" lon="0.10375">
        <ele>1482</ele>
        <time>2009-02-05T12:38:54Z</time>
      </trkpt>
      <trkpt lat="42.90489" lon="0.10386">
        <ele>1480</ele>
        <time>2009-02-05T12:39:05Z</time>
      </trkpt>
      <trkpt lat="42.90487" lon="0.1039">
        <ele>1480</ele>
        <time>2009-02-05T12:39:07Z</time>
      </trkpt>
      <trkpt lat="42.90485" lon="0.10392">
        <ele>1480</ele>
        <time>2009-02-05T12:39:08Z</time>
      </trkpt>
      <trkpt lat="42.90481" lon="0.10398">
        <ele>1480</ele>
        <time>2009-02-05T12:39:13Z</time>
      </trkpt>
      <trkpt lat="42.90485" lon="0.10405">
        <ele>1481</ele>
        <time>2009-02-05T12:39:18Z</time>
      </trkpt>
      <trkpt lat="42.90485" lon="0.10407">
        <ele>1481</ele>
        <time>2009-02-05T12:39:20Z</time>
      </trkpt>
      <trkpt lat="42.90487" lon="0.10411">
        <ele>1483</ele>
        <time>2009-02-05T12:39:23Z</time>
      </trkpt>
      <trkpt lat="42.90496" lon="0.10418">
        <ele>1485</ele>
        <time>2009-02-05T12:39:36Z</time>
      </trkpt>
      <trkpt lat="42.90502" lon="0.10428">
        <ele>1486</ele>
        <time>2009-02-05T12:40:05Z</time>
      </trkpt>
      <trkpt lat="42.90502" lon="0.10428">
        <ele>1485</ele>
        <time>2009-02-05T12:40:12Z</time>
      </trkpt>
      <trkpt lat="42.90502" lon="0.10428">
        <ele>1485</ele>
        <time>2009-02-05T12:40:22Z</time>
      </trkpt>
      <trkpt lat="42.90507" lon="0.10428">
        <ele>1487</ele>
        <time>2009-02-05T12:41:03Z</time>
      </trkpt>
      <trkpt lat="42.90509" lon="0.10433">
        <ele>1488</ele>
        <time>2009-02-05T12:41:07Z</time>
      </trkpt>
      <trkpt lat="42.90509" lon="0.10435">
        <ele>1488</ele>
        <time>2009-02-05T12:41:09Z</time>
      </trkpt>
      <trkpt lat="42.90507" lon="0.10439">
        <ele>1488</ele>
        <time>2009-02-05T12:41:22Z</time>
      </trkpt>
      <trkpt lat="42.90507" lon="0.10437">
        <ele>1488</ele>
        <time>2009-02-05T12:41:24Z</time>
      </trkpt>
      <trkpt lat="42.90502" lon="0.10441">
        <ele>1488</ele>
        <time>2009-02-05T12:41:32Z</time>
      </trkpt>
      <trkpt lat="42.90504" lon="0.10448">
        <ele>1489</ele>
        <time>2009-02-05T12:41:37Z</time>
      </trkpt>
      <trkpt lat="42.90504" lon="0.10452">
        <ele>1490</ele>
        <time>2009-02-05T12:41:40Z</time>
      </trkpt>
      <trkpt lat="42.90504" lon="0.10456">
        <ele>1490</ele>
        <time>2009-02-05T12:41:43Z</time>
      </trkpt>
      <trkpt lat="42.90507" lon="0.10456">
        <ele>1491</ele>
        <time>2009-02-05T12:41:44Z</time>
      </trkpt>
      <trkpt lat="42.90507" lon="0.10458">
        <ele>1492</ele>
        <time>2009-02-05T12:41:46Z</time>
      </trkpt>
      <trkpt lat="42.90511" lon="0.10465">
        <ele>1492</ele>
        <time>2009-02-05T12:41:51Z</time>
      </trkpt>
      <trkpt lat="42.90513" lon="0.10467">
        <ele>1492</ele>
        <time>2009-02-05T12:41:55Z</time>
      </trkpt>
      <trkpt lat="42.90515" lon="0.10469">
        <ele>1492</ele>
        <time>2009-02-05T12:41:57Z</time>
      </trkpt>
      <trkpt lat="42.9053" lon="0.10486">
        <ele>1494</ele>
        <time>2009-02-05T12:42:23Z</time>
      </trkpt>
      <trkpt lat="42.90532" lon="0.10486">
        <ele>1495</ele>
        <time>2009-02-05T12:42:28Z</time>
      </trkpt>
      <trkpt lat="42.90534" lon="0.10491">
        <ele>1500</ele>
        <time>2009-02-05T12:42:36Z</time>
      </trkpt>
      <trkpt lat="42.90541" lon="0.10493">
        <ele>1501</ele>
        <time>2009-02-05T12:42:44Z</time>
      </trkpt>
      <trkpt lat="42.9055" lon="0.10491">
        <ele>1505</ele>
        <time>2009-02-05T12:42:55Z</time>
      </trkpt>
      <trkpt lat="42.90552" lon="0.10491">
        <ele>1506</ele>
        <time>2009-02-05T12:42:57Z</time>
      </trkpt>
      <trkpt lat="42.90554" lon="0.10489">
        <ele>1506</ele>
        <time>2009-02-05T12:43:00Z</time>
      </trkpt>
      <trkpt lat="42.90558" lon="0.10489">
        <ele>1507</ele>
        <time>2009-02-05T12:43:03Z</time>
      </trkpt>
      <trkpt lat="42.90571" lon="0.10491">
        <ele>1506</ele>
        <time>2009-02-05T12:43:21Z</time>
      </trkpt>
      <trkpt lat="42.90588" lon="0.10493">
        <ele>1509</ele>
        <time>2009-02-05T12:43:44Z</time>
      </trkpt>
      <trkpt lat="42.90588" lon="0.10495">
        <ele>1510</ele>
        <time>2009-02-05T12:43:47Z</time>
      </trkpt>
      <trkpt lat="42.90595" lon="0.10499">
        <ele>1510</ele>
        <time>2009-02-05T12:43:57Z</time>
      </trkpt>
      <trkpt lat="42.90595" lon="0.10499">
        <ele>1510</ele>
        <time>2009-02-05T12:44:00Z</time>
      </trkpt>
      <trkpt lat="42.90595" lon="0.10501">
        <ele>1511</ele>
        <time>2009-02-05T12:44:01Z</time>
      </trkpt>
      <trkpt lat="42.90597" lon="0.10501">
        <ele>1511</ele>
        <time>2009-02-05T12:44:03Z</time>
      </trkpt>
      <trkpt lat="42.90605" lon="0.10512">
        <ele>1516</ele>
        <time>2009-02-05T12:44:24Z</time>
      </trkpt>
      <trkpt lat="42.90605" lon="0.10516">
        <ele>1516</ele>
        <time>2009-02-05T12:44:28Z</time>
      </trkpt>
      <trkpt lat="42.90603" lon="0.10531">
        <ele>1517</ele>
        <time>2009-02-05T12:44:48Z</time>
      </trkpt>
      <trkpt lat="42.90605" lon="0.10536">
        <ele>1518</ele>
        <time>2009-02-05T12:44:53Z</time>
      </trkpt>
      <trkpt lat="42.9061" lon="0.10549">
        <ele>1519</ele>
        <time>2009-02-05T12:45:13Z</time>
      </trkpt>
      <trkpt lat="42.90612" lon="0.10561">
        <ele>1523</ele>
        <time>2009-02-05T12:45:40Z</time>
      </trkpt>
      <trkpt lat="42.90612" lon="0.10568">
        <ele>1525</ele>
        <time>2009-02-05T12:45:49Z</time>
      </trkpt>
      <trkpt lat="42.90614" lon="0.1057">
        <ele>1527</ele>
        <time>2009-02-05T12:45:52Z</time>
      </trkpt>
      <trkpt lat="42.90612" lon="0.10574">
        <ele>1529</ele>
        <time>2009-02-05T12:46:06Z</time>
      </trkpt>
      <trkpt lat="42.90614" lon="0.10579">
        <ele>1531</ele>
        <time>2009-02-05T12:46:10Z</time>
      </trkpt>
      <trkpt lat="42.90612" lon="0.10587">
        <ele>1531</ele>
        <time>2009-02-05T12:46:15Z</time>
      </trkpt>
      <trkpt lat="42.90612" lon="0.10592">
        <ele>1531</ele>
        <time>2009-02-05T12:46:18Z</time>
      </trkpt>
      <trkpt lat="42.90612" lon="0.10598">
        <ele>1532</ele>
        <time>2009-02-05T12:46:23Z</time>
      </trkpt>
      <trkpt lat="42.90612" lon="0.10609">
        <ele>1534</ele>
        <time>2009-02-05T12:46:30Z</time>
      </trkpt>
      <trkpt lat="42.90616" lon="0.10626">
        <ele>1537</ele>
        <time>2009-02-05T12:46:43Z</time>
      </trkpt>
      <trkpt lat="42.9062" lon="0.10647">
        <ele>1542</ele>
        <time>2009-02-05T12:46:56Z</time>
      </trkpt>
      <trkpt lat="42.90622" lon="0.10652">
        <ele>1542</ele>
        <time>2009-02-05T12:46:59Z</time>
      </trkpt>
      <trkpt lat="42.90622" lon="0.10658">
        <ele>1546</ele>
        <time>2009-02-05T12:47:04Z</time>
      </trkpt>
      <trkpt lat="42.90625" lon="0.10662">
        <ele>1546</ele>
        <time>2009-02-05T12:47:07Z</time>
      </trkpt>
      <trkpt lat="42.90625" lon="0.10667">
        <ele>1548</ele>
        <time>2009-02-05T12:47:10Z</time>
      </trkpt>
      <trkpt lat="42.90625" lon="0.10669">
        <ele>1548</ele>
        <time>2009-02-05T12:47:11Z</time>
      </trkpt>
      <trkpt lat="42.90627" lon="0.10677">
        <ele>1549</ele>
        <time>2009-02-05T12:47:18Z</time>
      </trkpt>
      <trkpt lat="42.90627" lon="0.10686">
        <ele>1550</ele>
        <time>2009-02-05T12:47:25Z</time>
      </trkpt>
      <trkpt lat="42.90629" lon="0.1069">
        <ele>1551</ele>
        <time>2009-02-05T12:47:28Z</time>
      </trkpt>
      <trkpt lat="42.90629" lon="0.10692">
        <ele>1551</ele>
        <time>2009-02-05T12:47:30Z</time>
      </trkpt>
      <trkpt lat="42.90631" lon="0.10703">
        <ele>1551</ele>
        <time>2009-02-05T12:47:38Z</time>
      </trkpt>
      <trkpt lat="42.90633" lon="0.10707">
        <ele>1552</ele>
        <time>2009-02-05T12:47:42Z</time>
      </trkpt>
      <trkpt lat="42.90633" lon="0.10716">
        <ele>1553</ele>
        <time>2009-02-05T12:47:48Z</time>
      </trkpt>
      <trkpt lat="42.90633" lon="0.1072">
        <ele>1554</ele>
        <time>2009-02-05T12:47:52Z</time>
      </trkpt>
      <trkpt lat="42.90633" lon="0.10722">
        <ele>1554</ele>
        <time>2009-02-05T12:47:54Z</time>
      </trkpt>
      <trkpt lat="42.90633" lon="0.10731">
        <ele>1556</ele>
        <time>2009-02-05T12:47:59Z</time>
      </trkpt>
      <trkpt lat="42.90633" lon="0.10735">
        <ele>1555</ele>
        <time>2009-02-05T12:48:03Z</time>
      </trkpt>
      <trkpt lat="42.90633" lon="0.10737">
        <ele>1555</ele>
        <time>2009-02-05T12:48:04Z</time>
      </trkpt>
      <trkpt lat="42.90633" lon="0.10742">
        <ele>1556</ele>
        <time>2009-02-05T12:48:08Z</time>
      </trkpt>
      <trkpt lat="42.90633" lon="0.10752">
        <ele>1556</ele>
        <time>2009-02-05T12:48:15Z</time>
      </trkpt>
      <trkpt lat="42.90631" lon="0.10761">
        <ele>1557</ele>
        <time>2009-02-05T12:48:21Z</time>
      </trkpt>
      <trkpt lat="42.90631" lon="0.10761">
        <ele>1557</ele>
        <time>2009-02-05T12:48:22Z</time>
      </trkpt>
      <trkpt lat="42.90631" lon="0.10765">
        <ele>1559</ele>
        <time>2009-02-05T12:48:25Z</time>
      </trkpt>
      <trkpt lat="42.90631" lon="0.1077">
        <ele>1559</ele>
        <time>2009-02-05T12:48:28Z</time>
      </trkpt>
      <trkpt lat="42.90631" lon="0.10782">
        <ele>1560</ele>
        <time>2009-02-05T12:48:36Z</time>
      </trkpt>
      <trkpt lat="42.90631" lon="0.10785">
        <ele>1559</ele>
        <time>2009-02-05T12:48:39Z</time>
      </trkpt>
      <trkpt lat="42.90631" lon="0.10798">
        <ele>1561</ele>
        <time>2009-02-05T12:48:48Z</time>
      </trkpt>
      <trkpt lat="42.90631" lon="0.10802">
        <ele>1562</ele>
        <time>2009-02-05T12:48:51Z</time>
      </trkpt>
      <trkpt lat="42.90631" lon="0.10806">
        <ele>1562</ele>
        <time>2009-02-05T12:48:54Z</time>
      </trkpt>
      <trkpt lat="42.90631" lon="0.10815">
        <ele>1562</ele>
        <time>2009-02-05T12:48:59Z</time>
      </trkpt>
      <trkpt lat="42.90631" lon="0.10825">
        <ele>1565</ele>
        <time>2009-02-05T12:49:07Z</time>
      </trkpt>
      <trkpt lat="42.90631" lon="0.10828">
        <ele>1564</ele>
        <time>2009-02-05T12:49:08Z</time>
      </trkpt>
      <trkpt lat="42.90633" lon="0.10832">
        <ele>1564</ele>
        <time>2009-02-05T12:49:11Z</time>
      </trkpt>
      <trkpt lat="42.90633" lon="0.10832">
        <ele>1564</ele>
        <time>2009-02-05T12:49:12Z</time>
      </trkpt>
      <trkpt lat="42.90633" lon="0.10843">
        <ele>1564</ele>
        <time>2009-02-05T12:49:21Z</time>
      </trkpt>
      <trkpt lat="42.9064" lon="0.10862">
        <ele>1565</ele>
        <time>2009-02-05T12:49:34Z</time>
      </trkpt>
      <trkpt lat="42.9064" lon="0.10873">
        <ele>1567</ele>
        <time>2009-02-05T12:49:40Z</time>
      </trkpt>
      <trkpt lat="42.90642" lon="0.10877">
        <ele>1567</ele>
        <time>2009-02-05T12:49:43Z</time>
      </trkpt>
      <trkpt lat="42.90642" lon="0.10883">
        <ele>1566</ele>
        <time>2009-02-05T12:49:47Z</time>
      </trkpt>
      <trkpt lat="42.90644" lon="0.10885">
        <ele>1566</ele>
        <time>2009-02-05T12:49:50Z</time>
      </trkpt>
      <trkpt lat="42.90646" lon="0.10888">
        <ele>1565</ele>
        <time>2009-02-05T12:49:55Z</time>
      </trkpt>
      <trkpt lat="42.9065" lon="0.1089">
        <ele>1566</ele>
        <time>2009-02-05T12:49:58Z</time>
      </trkpt>
      <trkpt lat="42.90657" lon="0.10894">
        <ele>1569</ele>
        <time>2009-02-05T12:50:14Z</time>
      </trkpt>
      <trkpt lat="42.90657" lon="0.10894">
        <ele>1572</ele>
        <time>2009-02-05T12:50:32Z</time>
      </trkpt>
      <trkpt lat="42.90655" lon="0.109">
        <ele>1572</ele>
        <time>2009-02-05T12:50:38Z</time>
      </trkpt>
      <trkpt lat="42.90659" lon="0.10907">
        <ele>1571</ele>
        <time>2009-02-05T12:50:44Z</time>
      </trkpt>
      <trkpt lat="42.90661" lon="0.10909">
        <ele>1571</ele>
        <time>2009-02-05T12:50:49Z</time>
      </trkpt>
      <trkpt lat="42.90661" lon="0.10911">
        <ele>1572</ele>
        <time>2009-02-05T12:50:52Z</time>
      </trkpt>
      <trkpt lat="42.90663" lon="0.10913">
        <ele>1572</ele>
        <time>2009-02-05T12:50:54Z</time>
      </trkpt>
      <trkpt lat="42.90663" lon="0.10918">
        <ele>1573</ele>
        <time>2009-02-05T12:50:58Z</time>
      </trkpt>
      <trkpt lat="42.90665" lon="0.1092">
        <ele>1573</ele>
        <time>2009-02-05T12:51:02Z</time>
      </trkpt>
      <trkpt lat="42.90665" lon="0.10924">
        <ele>1573</ele>
        <time>2009-02-05T12:51:05Z</time>
      </trkpt>
      <trkpt lat="42.90665" lon="0.10926">
        <ele>1573</ele>
        <time>2009-02-05T12:51:08Z</time>
      </trkpt>
      <trkpt lat="42.90668" lon="0.10937">
        <ele>1573</ele>
        <time>2009-02-05T12:51:20Z</time>
      </trkpt>
      <trkpt lat="42.9067" lon="0.10941">
        <ele>1573</ele>
        <time>2009-02-05T12:51:24Z</time>
      </trkpt>
      <trkpt lat="42.90672" lon="0.1095">
        <ele>1572</ele>
        <time>2009-02-05T12:51:32Z</time>
      </trkpt>
      <trkpt lat="42.90674" lon="0.10956">
        <ele>1574</ele>
        <time>2009-02-05T12:51:38Z</time>
      </trkpt>
      <trkpt lat="42.90676" lon="0.10961">
        <ele>1575</ele>
        <time>2009-02-05T12:51:42Z</time>
      </trkpt>
      <trkpt lat="42.90678" lon="0.10965">
        <ele>1575</ele>
        <time>2009-02-05T12:51:45Z</time>
      </trkpt>
      <trkpt lat="42.90678" lon="0.10971">
        <ele>1576</ele>
        <time>2009-02-05T12:51:49Z</time>
      </trkpt>
      <trkpt lat="42.90685" lon="0.10988">
        <ele>1578</ele>
        <time>2009-02-05T12:52:03Z</time>
      </trkpt>
      <trkpt lat="42.90689" lon="0.10993">
        <ele>1578</ele>
        <time>2009-02-05T12:52:07Z</time>
      </trkpt>
      <trkpt lat="42.90685" lon="0.10993">
        <ele>1578</ele>
        <time>2009-02-05T12:52:08Z</time>
      </trkpt>
      <trkpt lat="42.90689" lon="0.11001">
        <ele>1578</ele>
        <time>2009-02-05T12:52:14Z</time>
      </trkpt>
      <trkpt lat="42.90689" lon="0.11003">
        <ele>1577</ele>
        <time>2009-02-05T12:52:16Z</time>
      </trkpt>
      <trkpt lat="42.90691" lon="0.11006">
        <ele>1578</ele>
        <time>2009-02-05T12:52:18Z</time>
      </trkpt>
      <trkpt lat="42.90691" lon="0.1101">
        <ele>1579</ele>
        <time>2009-02-05T12:52:21Z</time>
      </trkpt>
      <trkpt lat="42.90689" lon="0.11012">
        <ele>1580</ele>
        <time>2009-02-05T12:52:24Z</time>
      </trkpt>
      <trkpt lat="42.90691" lon="0.11016">
        <ele>1580</ele>
        <time>2009-02-05T12:52:27Z</time>
      </trkpt>
      <trkpt lat="42.90691" lon="0.11019">
        <ele>1581</ele>
        <time>2009-02-05T12:52:29Z</time>
      </trkpt>
      <trkpt lat="42.90693" lon="0.11023">
        <ele>1581</ele>
        <time>2009-02-05T12:52:32Z</time>
      </trkpt>
      <trkpt lat="42.90698" lon="0.11023">
        <ele>1581</ele>
        <time>2009-02-05T12:52:33Z</time>
      </trkpt>
      <trkpt lat="42.907" lon="0.11029">
        <ele>1582</ele>
        <time>2009-02-05T12:52:38Z</time>
      </trkpt>
      <trkpt lat="42.90702" lon="0.11036">
        <ele>1583</ele>
        <time>2009-02-05T12:52:43Z</time>
      </trkpt>
      <trkpt lat="42.90704" lon="0.1104">
        <ele>1584</ele>
        <time>2009-02-05T12:52:46Z</time>
      </trkpt>
      <trkpt lat="42.90706" lon="0.11046">
        <ele>1585</ele>
        <time>2009-02-05T12:52:51Z</time>
      </trkpt>
      <trkpt lat="42.90708" lon="0.11051">
        <ele>1585</ele>
        <time>2009-02-05T12:52:55Z</time>
      </trkpt>
      <trkpt lat="42.90708" lon="0.11053">
        <ele>1585</ele>
        <time>2009-02-05T12:52:57Z</time>
      </trkpt>
      <trkpt lat="42.90713" lon="0.11057">
        <ele>1585</ele>
        <time>2009-02-05T12:53:01Z</time>
      </trkpt>
      <trkpt lat="42.90725" lon="0.11066">
        <ele>1586</ele>
        <time>2009-02-05T12:53:13Z</time>
      </trkpt>
      <trkpt lat="42.90725" lon="0.11068">
        <ele>1586</ele>
        <time>2009-02-05T12:53:16Z</time>
      </trkpt>
      <trkpt lat="42.90723" lon="0.11076">
        <ele>1588</ele>
        <time>2009-02-05T12:53:21Z</time>
      </trkpt>
      <trkpt lat="42.90723" lon="0.11079">
        <ele>1587</ele>
        <time>2009-02-05T12:53:23Z</time>
      </trkpt>
      <trkpt lat="42.90723" lon="0.11081">
        <ele>1587</ele>
        <time>2009-02-05T12:53:26Z</time>
      </trkpt>
      <trkpt lat="42.90723" lon="0.11085">
        <ele>1582</ele>
        <time>2009-02-05T12:53:32Z</time>
      </trkpt>
      <trkpt lat="42.90721" lon="0.11089">
        <ele>1583</ele>
        <time>2009-02-05T12:53:36Z</time>
      </trkpt>
      <trkpt lat="42.90719" lon="0.11098">
        <ele>1586</ele>
        <time>2009-02-05T12:53:42Z</time>
      </trkpt>
      <trkpt lat="42.90719" lon="0.11102">
        <ele>1587</ele>
        <time>2009-02-05T12:53:45Z</time>
      </trkpt>
      <trkpt lat="42.90719" lon="0.11106">
        <ele>1588</ele>
        <time>2009-02-05T12:53:48Z</time>
      </trkpt>
      <trkpt lat="42.90719" lon="0.11111">
        <ele>1588</ele>
        <time>2009-02-05T12:53:51Z</time>
      </trkpt>
      <trkpt lat="42.90719" lon="0.11117">
        <ele>1590</ele>
        <time>2009-02-05T12:53:55Z</time>
      </trkpt>
      <trkpt lat="42.90721" lon="0.11119">
        <ele>1590</ele>
        <time>2009-02-05T12:53:57Z</time>
      </trkpt>
      <trkpt lat="42.90723" lon="0.1113">
        <ele>1593</ele>
        <time>2009-02-05T12:54:04Z</time>
      </trkpt>
      <trkpt lat="42.90725" lon="0.11141">
        <ele>1594</ele>
        <time>2009-02-05T12:54:11Z</time>
      </trkpt>
      <trkpt lat="42.90728" lon="0.11156">
        <ele>1595</ele>
        <time>2009-02-05T12:54:21Z</time>
      </trkpt>
      <trkpt lat="42.90728" lon="0.11158">
        <ele>1596</ele>
        <time>2009-02-05T12:54:23Z</time>
      </trkpt>
      <trkpt lat="42.9073" lon="0.11164">
        <ele>1596</ele>
        <time>2009-02-05T12:54:27Z</time>
      </trkpt>
      <trkpt lat="42.9073" lon="0.11175">
        <ele>1597</ele>
        <time>2009-02-05T12:54:35Z</time>
      </trkpt>
      <trkpt lat="42.90732" lon="0.11179">
        <ele>1597</ele>
        <time>2009-02-05T12:54:38Z</time>
      </trkpt>
      <trkpt lat="42.90732" lon="0.11184">
        <ele>1597</ele>
        <time>2009-02-05T12:54:41Z</time>
      </trkpt>
      <trkpt lat="42.90734" lon="0.11188">
        <ele>1597</ele>
        <time>2009-02-05T12:54:44Z</time>
      </trkpt>
      <trkpt lat="42.90736" lon="0.11194">
        <ele>1597</ele>
        <time>2009-02-05T12:54:48Z</time>
      </trkpt>
      <trkpt lat="42.90738" lon="0.11197">
        <ele>1598</ele>
        <time>2009-02-05T12:54:50Z</time>
      </trkpt>
      <trkpt lat="42.9074" lon="0.11201">
        <ele>1599</ele>
        <time>2009-02-05T12:54:54Z</time>
      </trkpt>
      <trkpt lat="42.90747" lon="0.11212">
        <ele>1599</ele>
        <time>2009-02-05T12:55:01Z</time>
      </trkpt>
      <trkpt lat="42.90751" lon="0.11218">
        <ele>1600</ele>
        <time>2009-02-05T12:55:07Z</time>
      </trkpt>
      <trkpt lat="42.90753" lon="0.11222">
        <ele>1601</ele>
        <time>2009-02-05T12:55:11Z</time>
      </trkpt>
      <trkpt lat="42.9076" lon="0.11227">
        <ele>1601</ele>
        <time>2009-02-05T12:55:15Z</time>
      </trkpt>
      <trkpt lat="42.90764" lon="0.11231">
        <ele>1602</ele>
        <time>2009-02-05T12:55:18Z</time>
      </trkpt>
      <trkpt lat="42.90766" lon="0.11233">
        <ele>1602</ele>
        <time>2009-02-05T12:55:21Z</time>
      </trkpt>
      <trkpt lat="42.90768" lon="0.11237">
        <ele>1603</ele>
        <time>2009-02-05T12:55:24Z</time>
      </trkpt>
      <trkpt lat="42.90768" lon="0.11244">
        <ele>1605</ele>
        <time>2009-02-05T12:55:30Z</time>
      </trkpt>
      <trkpt lat="42.90771" lon="0.11248">
        <ele>1605</ele>
        <time>2009-02-05T12:55:35Z</time>
      </trkpt>
      <trkpt lat="42.90773" lon="0.11252">
        <ele>1605</ele>
        <time>2009-02-05T12:55:38Z</time>
      </trkpt>
      <trkpt lat="42.90768" lon="0.11248">
        <ele>1602</ele>
        <time>2009-02-05T12:55:44Z</time>
      </trkpt>
      <trkpt lat="42.90768" lon="0.1125">
        <ele>1606</ele>
        <time>2009-02-05T12:55:53Z</time>
      </trkpt>
      <trkpt lat="42.90768" lon="0.1125">
        <ele>1609</ele>
        <time>2009-02-05T12:56:03Z</time>
      </trkpt>
      <trkpt lat="42.90771" lon="0.11255">
        <ele>1613</ele>
        <time>2009-02-05T12:56:18Z</time>
      </trkpt>
      <trkpt lat="42.90775" lon="0.11257">
        <ele>1613</ele>
        <time>2009-02-05T12:56:21Z</time>
      </trkpt>
      <trkpt lat="42.90777" lon="0.11259">
        <ele>1613</ele>
        <time>2009-02-05T12:56:23Z</time>
      </trkpt>
      <trkpt lat="42.90779" lon="0.11263">
        <ele>1616</ele>
        <time>2009-02-05T12:56:27Z</time>
      </trkpt>
      <trkpt lat="42.90781" lon="0.1127">
        <ele>1617</ele>
        <time>2009-02-05T12:56:31Z</time>
      </trkpt>
      <trkpt lat="42.90783" lon="0.11278">
        <ele>1617</ele>
        <time>2009-02-05T12:56:36Z</time>
      </trkpt>
      <trkpt lat="42.90783" lon="0.11285">
        <ele>1616</ele>
        <time>2009-02-05T12:56:40Z</time>
      </trkpt>
      <trkpt lat="42.90788" lon="0.11302">
        <ele>1616</ele>
        <time>2009-02-05T12:56:50Z</time>
      </trkpt>
      <trkpt lat="42.90788" lon="0.11306">
        <ele>1616</ele>
        <time>2009-02-05T12:56:53Z</time>
      </trkpt>
      <trkpt lat="42.90796" lon="0.11319">
        <ele>1614</ele>
        <time>2009-02-05T12:57:03Z</time>
      </trkpt>
      <trkpt lat="42.90805" lon="0.11334">
        <ele>1616</ele>
        <time>2009-02-05T12:57:13Z</time>
      </trkpt>
      <trkpt lat="42.90807" lon="0.11338">
        <ele>1617</ele>
        <time>2009-02-05T12:57:16Z</time>
      </trkpt>
      <trkpt lat="42.90809" lon="0.11343">
        <ele>1617</ele>
        <time>2009-02-05T12:57:18Z</time>
      </trkpt>
      <trkpt lat="42.90809" lon="0.11349">
        <ele>1617</ele>
        <time>2009-02-05T12:57:22Z</time>
      </trkpt>
      <trkpt lat="42.90805" lon="0.11364">
        <ele>1615</ele>
        <time>2009-02-05T12:57:33Z</time>
      </trkpt>
      <trkpt lat="42.90805" lon="0.11368">
        <ele>1614</ele>
        <time>2009-02-05T12:57:37Z</time>
      </trkpt>
      <trkpt lat="42.90807" lon="0.11373">
        <ele>1614</ele>
        <time>2009-02-05T12:57:41Z</time>
      </trkpt>
      <trkpt lat="42.90807" lon="0.11377">
        <ele>1614</ele>
        <time>2009-02-05T12:57:45Z</time>
      </trkpt>
      <trkpt lat="42.90811" lon="0.11381">
        <ele>1615</ele>
        <time>2009-02-05T12:57:49Z</time>
      </trkpt>
      <trkpt lat="42.90811" lon="0.11383">
        <ele>1616</ele>
        <time>2009-02-05T12:57:52Z</time>
      </trkpt>
      <trkpt lat="42.90816" lon="0.114">
        <ele>1620</ele>
        <time>2009-02-05T12:58:07Z</time>
      </trkpt>
      <trkpt lat="42.90816" lon="0.11403">
        <ele>1621</ele>
        <time>2009-02-05T12:58:12Z</time>
      </trkpt>
      <trkpt lat="42.90816" lon="0.11407">
        <ele>1622</ele>
        <time>2009-02-05T12:58:15Z</time>
      </trkpt>
      <trkpt lat="42.90818" lon="0.11409">
        <ele>1624</ele>
        <time>2009-02-05T12:58:19Z</time>
      </trkpt>
      <trkpt lat="42.9082" lon="0.11413">
        <ele>1624</ele>
        <time>2009-02-05T12:58:27Z</time>
      </trkpt>
      <trkpt lat="42.90826" lon="0.11426">
        <ele>1625</ele>
        <time>2009-02-05T12:58:44Z</time>
      </trkpt>
      <trkpt lat="42.90828" lon="0.11428">
        <ele>1625</ele>
        <time>2009-02-05T12:58:47Z</time>
      </trkpt>
      <trkpt lat="42.90831" lon="0.11431">
        <ele>1625</ele>
        <time>2009-02-05T12:58:51Z</time>
      </trkpt>
      <trkpt lat="42.90835" lon="0.11435">
        <ele>1628</ele>
        <time>2009-02-05T12:59:03Z</time>
      </trkpt>
      <trkpt lat="42.90843" lon="0.11443">
        <ele>1629</ele>
        <time>2009-02-05T12:59:17Z</time>
      </trkpt>
      <trkpt lat="42.90843" lon="0.11446">
        <ele>1630</ele>
        <time>2009-02-05T12:59:20Z</time>
      </trkpt>
      <trkpt lat="42.90848" lon="0.11454">
        <ele>1633</ele>
        <time>2009-02-05T12:59:34Z</time>
      </trkpt>
      <trkpt lat="42.90846" lon="0.11456">
        <ele>1637</ele>
        <time>2009-02-05T12:59:48Z</time>
      </trkpt>
      <trkpt lat="42.90848" lon="0.11461">
        <ele>1637</ele>
        <time>2009-02-05T12:59:51Z</time>
      </trkpt>
      <trkpt lat="42.90856" lon="0.11484">
        <ele>1637</ele>
        <time>2009-02-05T13:00:00Z</time>
      </trkpt>
      <trkpt lat="42.90865" lon="0.11497">
        <ele>1636</ele>
        <time>2009-02-05T13:00:04Z</time>
      </trkpt>
      <trkpt lat="42.90874" lon="0.11508">
        <ele>1636</ele>
        <time>2009-02-05T13:00:10Z</time>
      </trkpt>
      <trkpt lat="42.90878" lon="0.11514">
        <ele>1636</ele>
        <time>2009-02-05T13:00:15Z</time>
      </trkpt>
      <trkpt lat="42.9088" lon="0.11518">
        <ele>1637</ele>
        <time>2009-02-05T13:00:19Z</time>
      </trkpt>
      <trkpt lat="42.9088" lon="0.11518">
        <ele>1637</ele>
        <time>2009-02-05T13:00:20Z</time>
      </trkpt>
      <trkpt lat="42.90878" lon="0.11523">
        <ele>1637</ele>
        <time>2009-02-05T13:00:23Z</time>
      </trkpt>
      <trkpt lat="42.90876" lon="0.11531">
        <ele>1637</ele>
        <time>2009-02-05T13:00:28Z</time>
      </trkpt>
      <trkpt lat="42.90871" lon="0.1154">
        <ele>1638</ele>
        <time>2009-02-05T13:00:34Z</time>
      </trkpt>
      <trkpt lat="42.90871" lon="0.1154">
        <ele>1636</ele>
        <time>2009-02-05T13:00:39Z</time>
      </trkpt>
      <trkpt lat="42.90874" lon="0.11544">
        <ele>1636</ele>
        <time>2009-02-05T13:00:45Z</time>
      </trkpt>
      <trkpt lat="42.90871" lon="0.11546">
        <ele>1636</ele>
        <time>2009-02-05T13:00:49Z</time>
      </trkpt>
      <trkpt lat="42.90865" lon="0.11555">
        <ele>1636</ele>
        <time>2009-02-05T13:00:56Z</time>
      </trkpt>
      <trkpt lat="42.90863" lon="0.11559">
        <ele>1636</ele>
        <time>2009-02-05T13:00:59Z</time>
      </trkpt>
      <trkpt lat="42.90856" lon="0.11568">
        <ele>1636</ele>
        <time>2009-02-05T13:01:05Z</time>
      </trkpt>
      <trkpt lat="42.90854" lon="0.11568">
        <ele>1636</ele>
        <time>2009-02-05T13:01:07Z</time>
      </trkpt>
      <trkpt lat="42.90852" lon="0.11574">
        <ele>1636</ele>
        <time>2009-02-05T13:01:12Z</time>
      </trkpt>
      <trkpt lat="42.90852" lon="0.11574">
        <ele>1636</ele>
        <time>2009-02-05T13:01:13Z</time>
      </trkpt>
      <trkpt lat="42.9085" lon="0.11576">
        <ele>1637</ele>
        <time>2009-02-05T13:01:19Z</time>
      </trkpt>
      <trkpt lat="42.90852" lon="0.11583">
        <ele>1638</ele>
        <time>2009-02-05T13:01:23Z</time>
      </trkpt>
      <trkpt lat="42.90854" lon="0.11583">
        <ele>1638</ele>
        <time>2009-02-05T13:01:24Z</time>
      </trkpt>
      <trkpt lat="42.90859" lon="0.11587">
        <ele>1640</ele>
        <time>2009-02-05T13:01:31Z</time>
      </trkpt>
      <trkpt lat="42.90863" lon="0.11589">
        <ele>1647</ele>
        <time>2009-02-05T13:01:34Z</time>
      </trkpt>
      <trkpt lat="42.90865" lon="0.11594">
        <ele>1649</ele>
        <time>2009-02-05T13:01:40Z</time>
      </trkpt>
      <trkpt lat="42.90874" lon="0.116">
        <ele>1648</ele>
        <time>2009-02-05T13:01:53Z</time>
      </trkpt>
      <trkpt lat="42.90876" lon="0.11602">
        <ele>1649</ele>
        <time>2009-02-05T13:01:57Z</time>
      </trkpt>
      <trkpt lat="42.9088" lon="0.11606">
        <ele>1649</ele>
        <time>2009-02-05T13:02:07Z</time>
      </trkpt>
      <trkpt lat="42.90882" lon="0.11606">
        <ele>1649</ele>
        <time>2009-02-05T13:02:14Z</time>
      </trkpt>
      <trkpt lat="42.90891" lon="0.11613">
        <ele>1650</ele>
        <time>2009-02-05T13:02:32Z</time>
      </trkpt>
      <trkpt lat="42.90895" lon="0.11613">
        <ele>1650</ele>
        <time>2009-02-05T13:02:41Z</time>
      </trkpt>
      <trkpt lat="42.90906" lon="0.11619">
        <ele>1650</ele>
        <time>2009-02-05T13:03:02Z</time>
      </trkpt>
      <trkpt lat="42.90906" lon="0.11624">
        <ele>1650</ele>
        <time>2009-02-05T13:03:14Z</time>
      </trkpt>
      <trkpt lat="42.90906" lon="0.11626">
        <ele>1652</ele>
        <time>2009-02-05T13:03:29Z</time>
      </trkpt>
      <trkpt lat="42.90908" lon="0.1163">
        <ele>1652</ele>
        <time>2009-02-05T13:03:32Z</time>
      </trkpt>
      <trkpt lat="42.90906" lon="0.11634">
        <ele>1653</ele>
        <time>2009-02-05T13:03:38Z</time>
      </trkpt>
      <trkpt lat="42.90912" lon="0.11639">
        <ele>1653</ele>
        <time>2009-02-05T13:03:40Z</time>
      </trkpt>
      <trkpt lat="42.90914" lon="0.11639">
        <ele>1653</ele>
        <time>2009-02-05T13:03:41Z</time>
      </trkpt>
      <trkpt lat="42.90916" lon="0.11641">
        <ele>1653</ele>
        <time>2009-02-05T13:03:42Z</time>
      </trkpt>
      <trkpt lat="42.90916" lon="0.11643">
        <ele>1655</ele>
        <time>2009-02-05T13:03:45Z</time>
      </trkpt>
      <trkpt lat="42.90923" lon="0.11647">
        <ele>1658</ele>
        <time>2009-02-05T13:03:56Z</time>
      </trkpt>
      <trkpt lat="42.90929" lon="0.11649">
        <ele>1659</ele>
        <time>2009-02-05T13:04:06Z</time>
      </trkpt>
      <trkpt lat="42.90936" lon="0.11654">
        <ele>1659</ele>
        <time>2009-02-05T13:04:13Z</time>
      </trkpt>
      <trkpt lat="42.9094" lon="0.11656">
        <ele>1662</ele>
        <time>2009-02-05T13:04:21Z</time>
      </trkpt>
      <trkpt lat="42.90942" lon="0.11658">
        <ele>1664</ele>
        <time>2009-02-05T13:04:24Z</time>
      </trkpt>
      <trkpt lat="42.90944" lon="0.11662">
        <ele>1665</ele>
        <time>2009-02-05T13:04:29Z</time>
      </trkpt>
      <trkpt lat="42.90949" lon="0.11667">
        <ele>1668</ele>
        <time>2009-02-05T13:04:38Z</time>
      </trkpt>
      <trkpt lat="42.90951" lon="0.11673">
        <ele>1667</ele>
        <time>2009-02-05T13:04:43Z</time>
      </trkpt>
      <trkpt lat="42.90955" lon="0.11677">
        <ele>1668</ele>
        <time>2009-02-05T13:04:51Z</time>
      </trkpt>
      <trkpt lat="42.90955" lon="0.11679">
        <ele>1668</ele>
        <time>2009-02-05T13:04:53Z</time>
      </trkpt>
      <trkpt lat="42.90964" lon="0.11694">
        <ele>1669</ele>
        <time>2009-02-05T13:05:24Z</time>
      </trkpt>
      <trkpt lat="42.90968" lon="0.11701">
        <ele>1669</ele>
        <time>2009-02-05T13:05:35Z</time>
      </trkpt>
      <trkpt lat="42.90968" lon="0.11701">
        <ele>1670</ele>
        <time>2009-02-05T13:05:36Z</time>
      </trkpt>
      <trkpt lat="42.9097" lon="0.11705">
        <ele>1673</ele>
        <time>2009-02-05T13:05:40Z</time>
      </trkpt>
      <trkpt lat="42.9097" lon="0.11707">
        <ele>1675</ele>
        <time>2009-02-05T13:05:44Z</time>
      </trkpt>
      <trkpt lat="42.9097" lon="0.11712">
        <ele>1676</ele>
        <time>2009-02-05T13:05:48Z</time>
      </trkpt>
      <trkpt lat="42.90972" lon="0.11712">
        <ele>1676</ele>
        <time>2009-02-05T13:05:50Z</time>
      </trkpt>
      <trkpt lat="42.90972" lon="0.11714">
        <ele>1676</ele>
        <time>2009-02-05T13:05:52Z</time>
      </trkpt>
      <trkpt lat="42.90972" lon="0.11716">
        <ele>1676</ele>
        <time>2009-02-05T13:05:54Z</time>
      </trkpt>
      <trkpt lat="42.90974" lon="0.11718">
        <ele>1677</ele>
        <time>2009-02-05T13:05:56Z</time>
      </trkpt>
      <trkpt lat="42.90974" lon="0.11718">
        <ele>1677</ele>
        <time>2009-02-05T13:05:58Z</time>
      </trkpt>
      <trkpt lat="42.90977" lon="0.1172">
        <ele>1677</ele>
        <time>2009-02-05T13:06:01Z</time>
      </trkpt>
      <trkpt lat="42.90979" lon="0.11729">
        <ele>1680</ele>
        <time>2009-02-05T13:06:11Z</time>
      </trkpt>
      <trkpt lat="42.90979" lon="0.11731">
        <ele>1683</ele>
        <time>2009-02-05T13:06:14Z</time>
      </trkpt>
      <trkpt lat="42.90979" lon="0.11733">
        <ele>1683</ele>
        <time>2009-02-05T13:06:17Z</time>
      </trkpt>
      <trkpt lat="42.90981" lon="0.11739">
        <ele>1685</ele>
        <time>2009-02-05T13:06:29Z</time>
      </trkpt>
      <trkpt lat="42.90981" lon="0.11742">
        <ele>1686</ele>
        <time>2009-02-05T13:06:31Z</time>
      </trkpt>
      <trkpt lat="42.90983" lon="0.11744">
        <ele>1687</ele>
        <time>2009-02-05T13:06:35Z</time>
      </trkpt>
      <trkpt lat="42.90987" lon="0.11746">
        <ele>1688</ele>
        <time>2009-02-05T13:06:41Z</time>
      </trkpt>
      <trkpt lat="42.90992" lon="0.11748">
        <ele>1689</ele>
        <time>2009-02-05T13:06:47Z</time>
      </trkpt>
      <trkpt lat="42.90994" lon="0.11748">
        <ele>1689</ele>
        <time>2009-02-05T13:06:49Z</time>
      </trkpt>
      <trkpt lat="42.90998" lon="0.1175">
        <ele>1692</ele>
        <time>2009-02-05T13:06:55Z</time>
      </trkpt>
      <trkpt lat="42.91004" lon="0.11757">
        <ele>1693</ele>
        <time>2009-02-05T13:07:05Z</time>
      </trkpt>
      <trkpt lat="42.91009" lon="0.11761">
        <ele>1694</ele>
        <time>2009-02-05T13:07:15Z</time>
      </trkpt>
      <trkpt lat="42.91013" lon="0.11763">
        <ele>1694</ele>
        <time>2009-02-05T13:07:21Z</time>
      </trkpt>
      <trkpt lat="42.91013" lon="0.11763">
        <ele>1694</ele>
        <time>2009-02-05T13:07:26Z</time>
      </trkpt>
      <trkpt lat="42.91017" lon="0.11767">
        <ele>1695</ele>
        <time>2009-02-05T13:07:30Z</time>
      </trkpt>
      <trkpt lat="42.91019" lon="0.1177">
        <ele>1696</ele>
        <time>2009-02-05T13:07:34Z</time>
      </trkpt>
      <trkpt lat="42.91019" lon="0.11772">
        <ele>1697</ele>
        <time>2009-02-05T13:07:37Z</time>
      </trkpt>
      <trkpt lat="42.91022" lon="0.11776">
        <ele>1697</ele>
        <time>2009-02-05T13:07:40Z</time>
      </trkpt>
      <trkpt lat="42.91022" lon="0.11776">
        <ele>1698</ele>
        <time>2009-02-05T13:07:41Z</time>
      </trkpt>
      <trkpt lat="42.91024" lon="0.11778">
        <ele>1700</ele>
        <time>2009-02-05T13:07:44Z</time>
      </trkpt>
      <trkpt lat="42.91024" lon="0.1178">
        <ele>1700</ele>
        <time>2009-02-05T13:07:46Z</time>
      </trkpt>
      <trkpt lat="42.91026" lon="0.11782">
        <ele>1701</ele>
        <time>2009-02-05T13:07:49Z</time>
      </trkpt>
      <trkpt lat="42.91026" lon="0.11782">
        <ele>1702</ele>
        <time>2009-02-05T13:07:51Z</time>
      </trkpt>
      <trkpt lat="42.91028" lon="0.11787">
        <ele>1703</ele>
        <time>2009-02-05T13:07:55Z</time>
      </trkpt>
      <trkpt lat="42.91028" lon="0.11789">
        <ele>1703</ele>
        <time>2009-02-05T13:07:58Z</time>
      </trkpt>
      <trkpt lat="42.9103" lon="0.11789">
        <ele>1703</ele>
        <time>2009-02-05T13:08:00Z</time>
      </trkpt>
      <trkpt lat="42.9103" lon="0.11791">
        <ele>1703</ele>
        <time>2009-02-05T13:08:04Z</time>
      </trkpt>
      <trkpt lat="42.91034" lon="0.11797">
        <ele>1705</ele>
        <time>2009-02-05T13:08:10Z</time>
      </trkpt>
      <trkpt lat="42.91034" lon="0.11802">
        <ele>1706</ele>
        <time>2009-02-05T13:08:13Z</time>
      </trkpt>
      <trkpt lat="42.91041" lon="0.11808">
        <ele>1709</ele>
        <time>2009-02-05T13:08:23Z</time>
      </trkpt>
      <trkpt lat="42.91043" lon="0.11815">
        <ele>1710</ele>
        <time>2009-02-05T13:08:30Z</time>
      </trkpt>
      <trkpt lat="42.91045" lon="0.11815">
        <ele>1709</ele>
        <time>2009-02-05T13:08:32Z</time>
      </trkpt>
      <trkpt lat="42.91047" lon="0.11819">
        <ele>1709</ele>
        <time>2009-02-05T13:08:38Z</time>
      </trkpt>
      <trkpt lat="42.91047" lon="0.11823">
        <ele>1708</ele>
        <time>2009-02-05T13:08:44Z</time>
      </trkpt>
      <trkpt lat="42.91052" lon="0.11823">
        <ele>1709</ele>
        <time>2009-02-05T13:08:48Z</time>
      </trkpt>
      <trkpt lat="42.9106" lon="0.11827">
        <ele>1710</ele>
        <time>2009-02-05T13:09:00Z</time>
      </trkpt>
      <trkpt lat="42.91062" lon="0.1183">
        <ele>1711</ele>
        <time>2009-02-05T13:09:04Z</time>
      </trkpt>
      <trkpt lat="42.91065" lon="0.11832">
        <ele>1712</ele>
        <time>2009-02-05T13:09:07Z</time>
      </trkpt>
      <trkpt lat="42.91065" lon="0.11834">
        <ele>1712</ele>
        <time>2009-02-05T13:09:10Z</time>
      </trkpt>
      <trkpt lat="42.91067" lon="0.11834">
        <ele>1711</ele>
        <time>2009-02-05T13:09:12Z</time>
      </trkpt>
      <trkpt lat="42.91069" lon="0.11836">
        <ele>1712</ele>
        <time>2009-02-05T13:09:16Z</time>
      </trkpt>
      <trkpt lat="42.91069" lon="0.1184">
        <ele>1712</ele>
        <time>2009-02-05T13:09:20Z</time>
      </trkpt>
      <trkpt lat="42.91071" lon="0.11842">
        <ele>1713</ele>
        <time>2009-02-05T13:09:23Z</time>
      </trkpt>
      <trkpt lat="42.91075" lon="0.11847">
        <ele>1715</ele>
        <time>2009-02-05T13:09:32Z</time>
      </trkpt>
      <trkpt lat="42.91077" lon="0.11849">
        <ele>1716</ele>
        <time>2009-02-05T13:09:35Z</time>
      </trkpt>
      <trkpt lat="42.9108" lon="0.11851">
        <ele>1719</ele>
        <time>2009-02-05T13:09:48Z</time>
      </trkpt>
      <trkpt lat="42.9108" lon="0.11851">
        <ele>1725</ele>
        <time>2009-02-05T13:10:12Z</time>
      </trkpt>
      <trkpt lat="42.91084" lon="0.11858">
        <ele>1724</ele>
        <time>2009-02-05T13:10:23Z</time>
      </trkpt>
      <trkpt lat="42.91084" lon="0.11858">
        <ele>1724</ele>
        <time>2009-02-05T13:10:26Z</time>
      </trkpt>
      <trkpt lat="42.91092" lon="0.11866">
        <ele>1725</ele>
        <time>2009-02-05T13:10:41Z</time>
      </trkpt>
      <trkpt lat="42.91099" lon="0.11868">
        <ele>1724</ele>
        <time>2009-02-05T13:10:51Z</time>
      </trkpt>
      <trkpt lat="42.91101" lon="0.1187">
        <ele>1725</ele>
        <time>2009-02-05T13:10:55Z</time>
      </trkpt>
      <trkpt lat="42.91101" lon="0.11873">
        <ele>1726</ele>
        <time>2009-02-05T13:11:00Z</time>
      </trkpt>
      <trkpt lat="42.91107" lon="0.11877">
        <ele>1728</ele>
        <time>2009-02-05T13:11:11Z</time>
      </trkpt>
      <trkpt lat="42.9111" lon="0.11877">
        <ele>1729</ele>
        <time>2009-02-05T13:11:14Z</time>
      </trkpt>
      <trkpt lat="42.91112" lon="0.11881">
        <ele>1731</ele>
        <time>2009-02-05T13:11:20Z</time>
      </trkpt>
      <trkpt lat="42.91116" lon="0.11885">
        <ele>1730</ele>
        <time>2009-02-05T13:11:26Z</time>
      </trkpt>
      <trkpt lat="42.91118" lon="0.11888">
        <ele>1731</ele>
        <time>2009-02-05T13:11:30Z</time>
      </trkpt>
      <trkpt lat="42.91118" lon="0.1189">
        <ele>1732</ele>
        <time>2009-02-05T13:11:33Z</time>
      </trkpt>
      <trkpt lat="42.9112" lon="0.11892">
        <ele>1733</ele>
        <time>2009-02-05T13:11:45Z</time>
      </trkpt>
      <trkpt lat="42.91125" lon="0.11898">
        <ele>1734</ele>
        <time>2009-02-05T13:11:58Z</time>
      </trkpt>
      <trkpt lat="42.91129" lon="0.11898">
        <ele>1738</ele>
        <time>2009-02-05T13:12:11Z</time>
      </trkpt>
      <trkpt lat="42.91135" lon="0.119">
        <ele>1740</ele>
        <time>2009-02-05T13:12:26Z</time>
      </trkpt>
      <trkpt lat="42.9114" lon="0.11903">
        <ele>1745</ele>
        <time>2009-02-05T13:13:31Z</time>
      </trkpt>
      <trkpt lat="42.91142" lon="0.11905">
        <ele>1745</ele>
        <time>2009-02-05T13:14:44Z</time>
      </trkpt>
      <trkpt lat="42.9114" lon="0.11903">
        <ele>1747</ele>
        <time>2009-02-05T13:15:44Z</time>
      </trkpt>
      <trkpt lat="42.9114" lon="0.11903">
        <ele>1748</ele>
        <time>2009-02-05T13:15:54Z</time>
      </trkpt>
      <trkpt lat="42.91142" lon="0.11903">
        <ele>1748</ele>
        <time>2009-02-05T13:15:58Z</time>
      </trkpt>
      <trkpt lat="42.91144" lon="0.11903">
        <ele>1749</ele>
        <time>2009-02-05T13:16:06Z</time>
      </trkpt>
      <trkpt lat="42.91146" lon="0.11905">
        <ele>1750</ele>
        <time>2009-02-05T13:16:10Z</time>
      </trkpt>
      <trkpt lat="42.91146" lon="0.11903">
        <ele>1751</ele>
        <time>2009-02-05T13:16:12Z</time>
      </trkpt>
      <trkpt lat="42.9115" lon="0.11905">
        <ele>1751</ele>
        <time>2009-02-05T13:16:16Z</time>
      </trkpt>
      <trkpt lat="42.91152" lon="0.11905">
        <ele>1751</ele>
        <time>2009-02-05T13:16:18Z</time>
      </trkpt>
      <trkpt lat="42.91155" lon="0.11907">
        <ele>1752</ele>
        <time>2009-02-05T13:16:22Z</time>
      </trkpt>
      <trkpt lat="42.91157" lon="0.11911">
        <ele>1753</ele>
        <time>2009-02-05T13:16:28Z</time>
      </trkpt>
      <trkpt lat="42.91161" lon="0.11911">
        <ele>1755</ele>
        <time>2009-02-05T13:16:38Z</time>
      </trkpt>
      <trkpt lat="42.91161" lon="0.11909">
        <ele>1757</ele>
        <time>2009-02-05T13:16:42Z</time>
      </trkpt>
      <trkpt lat="42.91161" lon="0.11907">
        <ele>1757</ele>
        <time>2009-02-05T13:16:44Z</time>
      </trkpt>
      <trkpt lat="42.91163" lon="0.11905">
        <ele>1759</ele>
        <time>2009-02-05T13:16:46Z</time>
      </trkpt>
      <trkpt lat="42.91163" lon="0.11894">
        <ele>1764</ele>
        <time>2009-02-05T13:16:59Z</time>
      </trkpt>
      <trkpt lat="42.91163" lon="0.11892">
        <ele>1764</ele>
        <time>2009-02-05T13:17:03Z</time>
      </trkpt>
      <trkpt lat="42.91167" lon="0.1189">
        <ele>1765</ele>
        <time>2009-02-05T13:17:10Z</time>
      </trkpt>
      <trkpt lat="42.9117" lon="0.11894">
        <ele>1766</ele>
        <time>2009-02-05T13:17:15Z</time>
      </trkpt>
      <trkpt lat="42.91174" lon="0.11896">
        <ele>1766</ele>
        <time>2009-02-05T13:17:18Z</time>
      </trkpt>
      <trkpt lat="42.91176" lon="0.119">
        <ele>1766</ele>
        <time>2009-02-05T13:17:21Z</time>
      </trkpt>
      <trkpt lat="42.91178" lon="0.11903">
        <ele>1766</ele>
        <time>2009-02-05T13:17:24Z</time>
      </trkpt>
      <trkpt lat="42.9118" lon="0.11905">
        <ele>1767</ele>
        <time>2009-02-05T13:17:28Z</time>
      </trkpt>
      <trkpt lat="42.91185" lon="0.11905">
        <ele>1768</ele>
        <time>2009-02-05T13:17:34Z</time>
      </trkpt>
      <trkpt lat="42.91187" lon="0.11905">
        <ele>1766</ele>
        <time>2009-02-05T13:17:36Z</time>
      </trkpt>
      <trkpt lat="42.91189" lon="0.11911">
        <ele>1768</ele>
        <time>2009-02-05T13:17:46Z</time>
      </trkpt>
      <trkpt lat="42.91189" lon="0.11909">
        <ele>1768</ele>
        <time>2009-02-05T13:17:54Z</time>
      </trkpt>
      <trkpt lat="42.91191" lon="0.11909">
        <ele>1770</ele>
        <time>2009-02-05T13:17:57Z</time>
      </trkpt>
      <trkpt lat="42.91191" lon="0.11909">
        <ele>1771</ele>
        <time>2009-02-05T13:18:00Z</time>
      </trkpt>
      <trkpt lat="42.91191" lon="0.11909">
        <ele>1772</ele>
        <time>2009-02-05T13:18:01Z</time>
      </trkpt>
      <trkpt lat="42.91191" lon="0.11907">
        <ele>1773</ele>
        <time>2009-02-05T13:18:03Z</time>
      </trkpt>
      <trkpt lat="42.91193" lon="0.11905">
        <ele>1774</ele>
        <time>2009-02-05T13:18:13Z</time>
      </trkpt>
      <trkpt lat="42.91195" lon="0.119">
        <ele>1782</ele>
        <time>2009-02-05T13:18:23Z</time>
      </trkpt>
      <trkpt lat="42.91198" lon="0.11896">
        <ele>1782</ele>
        <time>2009-02-05T13:18:39Z</time>
      </trkpt>
      <trkpt lat="42.91208" lon="0.11892">
        <ele>1783</ele>
        <time>2009-02-05T13:18:56Z</time>
      </trkpt>
      <trkpt lat="42.9121" lon="0.11892">
        <ele>1784</ele>
        <time>2009-02-05T13:19:04Z</time>
      </trkpt>
      <trkpt lat="42.91215" lon="0.1189">
        <ele>1782</ele>
        <time>2009-02-05T13:19:09Z</time>
      </trkpt>
      <trkpt lat="42.91215" lon="0.11892">
        <ele>1782</ele>
        <time>2009-02-05T13:19:11Z</time>
      </trkpt>
      <trkpt lat="42.91221" lon="0.11892">
        <ele>1785</ele>
        <time>2009-02-05T13:19:20Z</time>
      </trkpt>
      <trkpt lat="42.91223" lon="0.11892">
        <ele>1786</ele>
        <time>2009-02-05T13:19:27Z</time>
      </trkpt>
      <trkpt lat="42.91228" lon="0.11888">
        <ele>1787</ele>
        <time>2009-02-05T13:19:35Z</time>
      </trkpt>
      <trkpt lat="42.91236" lon="0.11885">
        <ele>1787</ele>
        <time>2009-02-05T13:19:50Z</time>
      </trkpt>
      <trkpt lat="42.91243" lon="0.1189">
        <ele>1791</ele>
        <time>2009-02-05T13:20:05Z</time>
      </trkpt>
      <trkpt lat="42.91245" lon="0.1189">
        <ele>1793</ele>
        <time>2009-02-05T13:20:12Z</time>
      </trkpt>
      <trkpt lat="42.91247" lon="0.11885">
        <ele>1795</ele>
        <time>2009-02-05T13:20:31Z</time>
      </trkpt>
      <trkpt lat="42.91249" lon="0.11881">
        <ele>1797</ele>
        <time>2009-02-05T13:20:40Z</time>
      </trkpt>
      <trkpt lat="42.91251" lon="0.11877">
        <ele>1802</ele>
        <time>2009-02-05T13:20:46Z</time>
      </trkpt>
      <trkpt lat="42.91253" lon="0.11879">
        <ele>1802</ele>
        <time>2009-02-05T13:20:49Z</time>
      </trkpt>
      <trkpt lat="42.91255" lon="0.11879">
        <ele>1803</ele>
        <time>2009-02-05T13:20:51Z</time>
      </trkpt>
      <trkpt lat="42.91258" lon="0.11881">
        <ele>1803</ele>
        <time>2009-02-05T13:20:57Z</time>
      </trkpt>
      <trkpt lat="42.9126" lon="0.11883">
        <ele>1803</ele>
        <time>2009-02-05T13:21:01Z</time>
      </trkpt>
      <trkpt lat="42.91262" lon="0.11883">
        <ele>1804</ele>
        <time>2009-02-05T13:21:04Z</time>
      </trkpt>
      <trkpt lat="42.91264" lon="0.11883">
        <ele>1804</ele>
        <time>2009-02-05T13:21:07Z</time>
      </trkpt>
      <trkpt lat="42.91266" lon="0.11883">
        <ele>1804</ele>
        <time>2009-02-05T13:21:09Z</time>
      </trkpt>
      <trkpt lat="42.91268" lon="0.11881">
        <ele>1805</ele>
        <time>2009-02-05T13:21:17Z</time>
      </trkpt>
      <trkpt lat="42.91273" lon="0.11881">
        <ele>1807</ele>
        <time>2009-02-05T13:21:27Z</time>
      </trkpt>
      <trkpt lat="42.91273" lon="0.11881">
        <ele>1807</ele>
        <time>2009-02-05T13:21:28Z</time>
      </trkpt>
      <trkpt lat="42.91275" lon="0.11879">
        <ele>1810</ele>
        <time>2009-02-05T13:21:32Z</time>
      </trkpt>
      <trkpt lat="42.91275" lon="0.11875">
        <ele>1818</ele>
        <time>2009-02-05T13:21:38Z</time>
      </trkpt>
      <trkpt lat="42.91275" lon="0.11875">
        <ele>1818</ele>
        <time>2009-02-05T13:21:40Z</time>
      </trkpt>
      <trkpt lat="42.91277" lon="0.11873">
        <ele>1818</ele>
        <time>2009-02-05T13:21:44Z</time>
      </trkpt>
      <trkpt lat="42.91279" lon="0.1187">
        <ele>1819</ele>
        <time>2009-02-05T13:21:49Z</time>
      </trkpt>
      <trkpt lat="42.91281" lon="0.11868">
        <ele>1819</ele>
        <time>2009-02-05T13:21:51Z</time>
      </trkpt>
      <trkpt lat="42.91283" lon="0.11866">
        <ele>1820</ele>
        <time>2009-02-05T13:21:58Z</time>
      </trkpt>
      <trkpt lat="42.91286" lon="0.11862">
        <ele>1821</ele>
        <time>2009-02-05T13:22:05Z</time>
      </trkpt>
      <trkpt lat="42.91288" lon="0.1186">
        <ele>1821</ele>
        <time>2009-02-05T13:22:13Z</time>
      </trkpt>
      <trkpt lat="42.91288" lon="0.11855">
        <ele>1823</ele>
        <time>2009-02-05T13:22:22Z</time>
      </trkpt>
      <trkpt lat="42.9129" lon="0.11855">
        <ele>1824</ele>
        <time>2009-02-05T13:22:27Z</time>
      </trkpt>
      <trkpt lat="42.91292" lon="0.11853">
        <ele>1825</ele>
        <time>2009-02-05T13:22:35Z</time>
      </trkpt>
      <trkpt lat="42.91296" lon="0.11853">
        <ele>1827</ele>
        <time>2009-02-05T13:22:45Z</time>
      </trkpt>
      <trkpt lat="42.91298" lon="0.11853">
        <ele>1827</ele>
        <time>2009-02-05T13:22:47Z</time>
      </trkpt>
      <trkpt lat="42.91301" lon="0.11853">
        <ele>1828</ele>
        <time>2009-02-05T13:22:51Z</time>
      </trkpt>
      <trkpt lat="42.91301" lon="0.11853">
        <ele>1829</ele>
        <time>2009-02-05T13:22:53Z</time>
      </trkpt>
      <trkpt lat="42.91303" lon="0.11851">
        <ele>1830</ele>
        <time>2009-02-05T13:23:00Z</time>
      </trkpt>
      <trkpt lat="42.91303" lon="0.11849">
        <ele>1831</ele>
        <time>2009-02-05T13:23:01Z</time>
      </trkpt>
      <trkpt lat="42.91307" lon="0.11849">
        <ele>1831</ele>
        <time>2009-02-05T13:23:05Z</time>
      </trkpt>
      <trkpt lat="42.91307" lon="0.11847">
        <ele>1832</ele>
        <time>2009-02-05T13:23:07Z</time>
      </trkpt>
      <trkpt lat="42.91313" lon="0.11847">
        <ele>1834</ele>
        <time>2009-02-05T13:23:19Z</time>
      </trkpt>
      <trkpt lat="42.91318" lon="0.11847">
        <ele>1836</ele>
        <time>2009-02-05T13:23:28Z</time>
      </trkpt>
      <trkpt lat="42.9132" lon="0.11847">
        <ele>1837</ele>
        <time>2009-02-05T13:23:31Z</time>
      </trkpt>
      <trkpt lat="42.91322" lon="0.11847">
        <ele>1837</ele>
        <time>2009-02-05T13:23:35Z</time>
      </trkpt>
      <trkpt lat="42.9132" lon="0.11845">
        <ele>1843</ele>
        <time>2009-02-05T13:23:45Z</time>
      </trkpt>
      <trkpt lat="42.91322" lon="0.11842">
        <ele>1843</ele>
        <time>2009-02-05T13:23:49Z</time>
      </trkpt>
      <trkpt lat="42.91322" lon="0.11842">
        <ele>1843</ele>
        <time>2009-02-05T13:23:50Z</time>
      </trkpt>
      <trkpt lat="42.91324" lon="0.11842">
        <ele>1843</ele>
        <time>2009-02-05T13:23:53Z</time>
      </trkpt>
      <trkpt lat="42.91328" lon="0.11842">
        <ele>1843</ele>
        <time>2009-02-05T13:23:57Z</time>
      </trkpt>
      <trkpt lat="42.91331" lon="0.11842">
        <ele>1842</ele>
        <time>2009-02-05T13:24:00Z</time>
      </trkpt>
      <trkpt lat="42.91331" lon="0.11842">
        <ele>1842</ele>
        <time>2009-02-05T13:24:01Z</time>
      </trkpt>
      <trkpt lat="42.91335" lon="0.11842">
        <ele>1843</ele>
        <time>2009-02-05T13:24:08Z</time>
      </trkpt>
      <trkpt lat="42.91335" lon="0.11836">
        <ele>1847</ele>
        <time>2009-02-05T13:24:13Z</time>
      </trkpt>
      <trkpt lat="42.91337" lon="0.11836">
        <ele>1848</ele>
        <time>2009-02-05T13:24:15Z</time>
      </trkpt>
      <trkpt lat="42.91339" lon="0.11836">
        <ele>1848</ele>
        <time>2009-02-05T13:24:18Z</time>
      </trkpt>
      <trkpt lat="42.91341" lon="0.11836">
        <ele>1848</ele>
        <time>2009-02-05T13:24:21Z</time>
      </trkpt>
      <trkpt lat="42.91343" lon="0.11838">
        <ele>1849</ele>
        <time>2009-02-05T13:24:23Z</time>
      </trkpt>
      <trkpt lat="42.91343" lon="0.11836">
        <ele>1849</ele>
        <time>2009-02-05T13:24:26Z</time>
      </trkpt>
      <trkpt lat="42.91348" lon="0.11836">
        <ele>1849</ele>
        <time>2009-02-05T13:24:32Z</time>
      </trkpt>
      <trkpt lat="42.9135" lon="0.11836">
        <ele>1849</ele>
        <time>2009-02-05T13:24:35Z</time>
      </trkpt>
      <trkpt lat="42.9135" lon="0.11836">
        <ele>1849</ele>
        <time>2009-02-05T13:24:37Z</time>
      </trkpt>
      <trkpt lat="42.91356" lon="0.11838">
        <ele>1847</ele>
        <time>2009-02-05T13:24:44Z</time>
      </trkpt>
      <trkpt lat="42.91356" lon="0.11838">
        <ele>1848</ele>
        <time>2009-02-05T13:24:46Z</time>
      </trkpt>
      <trkpt lat="42.91358" lon="0.11836">
        <ele>1849</ele>
        <time>2009-02-05T13:24:49Z</time>
      </trkpt>
      <trkpt lat="42.91363" lon="0.11834">
        <ele>1850</ele>
        <time>2009-02-05T13:24:57Z</time>
      </trkpt>
      <trkpt lat="42.91363" lon="0.11832">
        <ele>1852</ele>
        <time>2009-02-05T13:25:00Z</time>
      </trkpt>
      <trkpt lat="42.91365" lon="0.11827">
        <ele>1854</ele>
        <time>2009-02-05T13:25:09Z</time>
      </trkpt>
      <trkpt lat="42.91371" lon="0.11825">
        <ele>1855</ele>
        <time>2009-02-05T13:25:22Z</time>
      </trkpt>
      <trkpt lat="42.91371" lon="0.11823">
        <ele>1857</ele>
        <time>2009-02-05T13:25:40Z</time>
      </trkpt>
      <trkpt lat="42.91376" lon="0.11825">
        <ele>1855</ele>
        <time>2009-02-05T13:26:36Z</time>
      </trkpt>
      <trkpt lat="42.91378" lon="0.11827">
        <ele>1854</ele>
        <time>2009-02-05T13:26:39Z</time>
      </trkpt>
      <trkpt lat="42.91382" lon="0.11825">
        <ele>1855</ele>
        <time>2009-02-05T13:26:44Z</time>
      </trkpt>
      <trkpt lat="42.91384" lon="0.11827">
        <ele>1855</ele>
        <time>2009-02-05T13:26:47Z</time>
      </trkpt>
      <trkpt lat="42.91386" lon="0.11827">
        <ele>1855</ele>
        <time>2009-02-05T13:26:48Z</time>
      </trkpt>
      <trkpt lat="42.91391" lon="0.11827">
        <ele>1856</ele>
        <time>2009-02-05T13:26:57Z</time>
      </trkpt>
      <trkpt lat="42.91395" lon="0.11825">
        <ele>1859</ele>
        <time>2009-02-05T13:27:03Z</time>
      </trkpt>
      <trkpt lat="42.91397" lon="0.11825">
        <ele>1859</ele>
        <time>2009-02-05T13:27:04Z</time>
      </trkpt>
      <trkpt lat="42.91404" lon="0.11817">
        <ele>1863</ele>
        <time>2009-02-05T13:27:14Z</time>
      </trkpt>
      <trkpt lat="42.91406" lon="0.11815">
        <ele>1864</ele>
        <time>2009-02-05T13:27:20Z</time>
      </trkpt>
      <trkpt lat="42.91408" lon="0.11812">
        <ele>1865</ele>
        <time>2009-02-05T13:27:24Z</time>
      </trkpt>
      <trkpt lat="42.9141" lon="0.11808">
        <ele>1866</ele>
        <time>2009-02-05T13:27:30Z</time>
      </trkpt>
      <trkpt lat="42.91412" lon="0.11806">
        <ele>1868</ele>
        <time>2009-02-05T13:27:33Z</time>
      </trkpt>
      <trkpt lat="42.91412" lon="0.11806">
        <ele>1866</ele>
        <time>2009-02-05T13:27:36Z</time>
      </trkpt>
      <trkpt lat="42.91414" lon="0.11804">
        <ele>1867</ele>
        <time>2009-02-05T13:27:45Z</time>
      </trkpt>
      <trkpt lat="42.91414" lon="0.11804">
        <ele>1868</ele>
        <time>2009-02-05T13:27:47Z</time>
      </trkpt>
      <trkpt lat="42.91414" lon="0.11802">
        <ele>1868</ele>
        <time>2009-02-05T13:27:49Z</time>
      </trkpt>
      <trkpt lat="42.91416" lon="0.11797">
        <ele>1870</ele>
        <time>2009-02-05T13:27:57Z</time>
      </trkpt>
      <trkpt lat="42.91423" lon="0.11791">
        <ele>1871</ele>
        <time>2009-02-05T13:28:06Z</time>
      </trkpt>
      <trkpt lat="42.91425" lon="0.11789">
        <ele>1871</ele>
        <time>2009-02-05T13:28:11Z</time>
      </trkpt>
      <trkpt lat="42.91429" lon="0.11789">
        <ele>1871</ele>
        <time>2009-02-05T13:28:15Z</time>
      </trkpt>
      <trkpt lat="42.91429" lon="0.11789">
        <ele>1871</ele>
        <time>2009-02-05T13:28:17Z</time>
      </trkpt>
      <trkpt lat="42.91434" lon="0.11787">
        <ele>1872</ele>
        <time>2009-02-05T13:28:19Z</time>
      </trkpt>
      <trkpt lat="42.91436" lon="0.11787">
        <ele>1873</ele>
        <time>2009-02-05T13:28:25Z</time>
      </trkpt>
      <trkpt lat="42.9144" lon="0.11797">
        <ele>1874</ele>
        <time>2009-02-05T13:28:38Z</time>
      </trkpt>
      <trkpt lat="42.91449" lon="0.11815">
        <ele>1874</ele>
        <time>2009-02-05T13:29:07Z</time>
      </trkpt>
      <trkpt lat="42.91459" lon="0.11817">
        <ele>1874</ele>
        <time>2009-02-05T13:29:27Z</time>
      </trkpt>
      <trkpt lat="42.91464" lon="0.11821">
        <ele>1874</ele>
        <time>2009-02-05T13:29:35Z</time>
      </trkpt>
      <trkpt lat="42.91472" lon="0.11819">
        <ele>1878</ele>
        <time>2009-02-05T13:29:48Z</time>
      </trkpt>
      <trkpt lat="42.91476" lon="0.11815">
        <ele>1881</ele>
        <time>2009-02-05T13:30:00Z</time>
      </trkpt>
      <trkpt lat="42.91487" lon="0.1181">
        <ele>1881</ele>
        <time>2009-02-05T13:30:23Z</time>
      </trkpt>
      <trkpt lat="42.91504" lon="0.11817">
        <ele>1881</ele>
        <time>2009-02-05T13:30:56Z</time>
      </trkpt>
      <trkpt lat="42.91532" lon="0.11855">
        <ele>1881</ele>
        <time>2009-02-05T13:31:40Z</time>
      </trkpt>
      <trkpt lat="42.91534" lon="0.11862">
        <ele>1881</ele>
        <time>2009-02-05T13:31:44Z</time>
      </trkpt>
      <trkpt lat="42.91537" lon="0.11866">
        <ele>1881</ele>
        <time>2009-02-05T13:31:48Z</time>
      </trkpt>
      <trkpt lat="42.91541" lon="0.1187">
        <ele>1881</ele>
        <time>2009-02-05T13:31:53Z</time>
      </trkpt>
      <trkpt lat="42.91545" lon="0.11875">
        <ele>1881</ele>
        <time>2009-02-05T13:31:58Z</time>
      </trkpt>
      <trkpt lat="42.91549" lon="0.11877">
        <ele>1881</ele>
        <time>2009-02-05T13:32:02Z</time>
      </trkpt>
      <trkpt lat="42.91554" lon="0.11881">
        <ele>1881</ele>
        <time>2009-02-05T13:32:08Z</time>
      </trkpt>
      <trkpt lat="42.91558" lon="0.11883">
        <ele>1881</ele>
        <time>2009-02-05T13:32:13Z</time>
      </trkpt>
      <trkpt lat="42.91567" lon="0.11894">
        <ele>1881</ele>
        <time>2009-02-05T13:32:28Z</time>
      </trkpt>
      <trkpt lat="42.91577" lon="0.11905">
        <ele>1881</ele>
        <time>2009-02-05T13:32:38Z</time>
      </trkpt>
      <trkpt lat="42.91586" lon="0.11913">
        <ele>1881</ele>
        <time>2009-02-05T13:32:49Z</time>
      </trkpt>
      <trkpt lat="42.91592" lon="0.11924">
        <ele>1881</ele>
        <time>2009-02-05T13:32:56Z</time>
      </trkpt>
      <trkpt lat="42.91597" lon="0.11935">
        <ele>1881</ele>
        <time>2009-02-05T13:33:02Z</time>
      </trkpt>
      <trkpt lat="42.91605" lon="0.11937">
        <ele>1886</ele>
        <time>2009-02-05T13:33:15Z</time>
      </trkpt>
      <trkpt lat="42.91607" lon="0.11939">
        <ele>1886</ele>
        <time>2009-02-05T13:33:18Z</time>
      </trkpt>
      <trkpt lat="42.91612" lon="0.11939">
        <ele>1887</ele>
        <time>2009-02-05T13:33:24Z</time>
      </trkpt>
      <trkpt lat="42.91614" lon="0.11941">
        <ele>1886</ele>
        <time>2009-02-05T13:33:27Z</time>
      </trkpt>
      <trkpt lat="42.9162" lon="0.11939">
        <ele>1886</ele>
        <time>2009-02-05T13:33:33Z</time>
      </trkpt>
      <trkpt lat="42.91601" lon="0.11903">
        <ele>1893</ele>
        <time>2009-02-05T13:33:39Z</time>
      </trkpt>
      <trkpt lat="42.91616" lon="0.11903">
        <ele>1901</ele>
        <time>2009-02-05T13:33:58Z</time>
      </trkpt>
      <trkpt lat="42.9162" lon="0.11896">
        <ele>1912</ele>
        <time>2009-02-05T13:34:15Z</time>
      </trkpt>
      <trkpt lat="42.91627" lon="0.11894">
        <ele>1916</ele>
        <time>2009-02-05T13:34:28Z</time>
      </trkpt>
      <trkpt lat="42.91635" lon="0.11885">
        <ele>1926</ele>
        <time>2009-02-05T13:34:50Z</time>
      </trkpt>
      <trkpt lat="42.9164" lon="0.11883">
        <ele>1927</ele>
        <time>2009-02-05T13:35:04Z</time>
      </trkpt>
      <trkpt lat="42.91646" lon="0.11881">
        <ele>1931</ele>
        <time>2009-02-05T13:35:14Z</time>
      </trkpt>
      <trkpt lat="42.9165" lon="0.11877">
        <ele>1934</ele>
        <time>2009-02-05T13:35:20Z</time>
      </trkpt>
      <trkpt lat="42.91652" lon="0.11875">
        <ele>1936</ele>
        <time>2009-02-05T13:35:23Z</time>
      </trkpt>
      <trkpt lat="42.91657" lon="0.1187">
        <ele>1943</ele>
        <time>2009-02-05T13:35:37Z</time>
      </trkpt>
      <trkpt lat="42.9167" lon="0.1187">
        <ele>1943</ele>
        <time>2009-02-05T13:35:55Z</time>
      </trkpt>
      <trkpt lat="42.91672" lon="0.11873">
        <ele>1943</ele>
        <time>2009-02-05T13:36:02Z</time>
      </trkpt>
      <trkpt lat="42.91687" lon="0.11873">
        <ele>1948</ele>
        <time>2009-02-05T13:36:26Z</time>
      </trkpt>
      <trkpt lat="42.91687" lon="0.11875">
        <ele>1946</ele>
        <time>2009-02-05T13:36:27Z</time>
      </trkpt>
      <trkpt lat="42.91689" lon="0.11877">
        <ele>1946</ele>
        <time>2009-02-05T13:36:32Z</time>
      </trkpt>
      <trkpt lat="42.91698" lon="0.11881">
        <ele>1946</ele>
        <time>2009-02-05T13:36:44Z</time>
      </trkpt>
      <trkpt lat="42.917" lon="0.11881">
        <ele>1946</ele>
        <time>2009-02-05T13:36:46Z</time>
      </trkpt>
      <trkpt lat="42.91706" lon="0.11881">
        <ele>1946</ele>
        <time>2009-02-05T13:36:54Z</time>
      </trkpt>
      <trkpt lat="42.91713" lon="0.11883">
        <ele>1946</ele>
        <time>2009-02-05T13:37:00Z</time>
      </trkpt>
      <trkpt lat="42.91717" lon="0.1189">
        <ele>1946</ele>
        <time>2009-02-05T13:37:05Z</time>
      </trkpt>
      <trkpt lat="42.91719" lon="0.1189">
        <ele>1946</ele>
        <time>2009-02-05T13:37:08Z</time>
      </trkpt>
      <trkpt lat="42.91723" lon="0.1189">
        <ele>1945</ele>
        <time>2009-02-05T13:37:12Z</time>
      </trkpt>
      <trkpt lat="42.91723" lon="0.11894">
        <ele>1946</ele>
        <time>2009-02-05T13:37:15Z</time>
      </trkpt>
      <trkpt lat="42.91725" lon="0.11894">
        <ele>1946</ele>
        <time>2009-02-05T13:37:17Z</time>
      </trkpt>
      <trkpt lat="42.91732" lon="0.11903">
        <ele>1949</ele>
        <time>2009-02-05T13:37:32Z</time>
      </trkpt>
      <trkpt lat="42.91734" lon="0.11905">
        <ele>1950</ele>
        <time>2009-02-05T13:37:34Z</time>
      </trkpt>
      <trkpt lat="42.91734" lon="0.119">
        <ele>1960</ele>
        <time>2009-02-05T13:37:47Z</time>
      </trkpt>
      <trkpt lat="42.91736" lon="0.1189">
        <ele>1965</ele>
        <time>2009-02-05T13:37:57Z</time>
      </trkpt>
      <trkpt lat="42.91736" lon="0.11881">
        <ele>1970</ele>
        <time>2009-02-05T13:38:04Z</time>
      </trkpt>
      <trkpt lat="42.91738" lon="0.11879">
        <ele>1970</ele>
        <time>2009-02-05T13:38:07Z</time>
      </trkpt>
      <trkpt lat="42.9174" lon="0.11879">
        <ele>1970</ele>
        <time>2009-02-05T13:38:10Z</time>
      </trkpt>
      <trkpt lat="42.91747" lon="0.11881">
        <ele>1971</ele>
        <time>2009-02-05T13:38:18Z</time>
      </trkpt>
      <trkpt lat="42.91751" lon="0.11881">
        <ele>1970</ele>
        <time>2009-02-05T13:38:23Z</time>
      </trkpt>
      <trkpt lat="42.91758" lon="0.11883">
        <ele>1974</ele>
        <time>2009-02-05T13:38:33Z</time>
      </trkpt>
      <trkpt lat="42.9176" lon="0.11883">
        <ele>1975</ele>
        <time>2009-02-05T13:38:36Z</time>
      </trkpt>
      <trkpt lat="42.91762" lon="0.11883">
        <ele>1975</ele>
        <time>2009-02-05T13:38:39Z</time>
      </trkpt>
      <trkpt lat="42.91762" lon="0.11883">
        <ele>1975</ele>
        <time>2009-02-05T13:38:40Z</time>
      </trkpt>
      <trkpt lat="42.91764" lon="0.11883">
        <ele>1975</ele>
        <time>2009-02-05T13:38:43Z</time>
      </trkpt>
      <trkpt lat="42.91766" lon="0.11883">
        <ele>1977</ele>
        <time>2009-02-05T13:38:46Z</time>
      </trkpt>
      <trkpt lat="42.91768" lon="0.11881">
        <ele>1982</ele>
        <time>2009-02-05T13:38:52Z</time>
      </trkpt>
      <trkpt lat="42.9177" lon="0.11879">
        <ele>1983</ele>
        <time>2009-02-05T13:38:57Z</time>
      </trkpt>
      <trkpt lat="42.91775" lon="0.11879">
        <ele>1983</ele>
        <time>2009-02-05T13:39:01Z</time>
      </trkpt>
      <trkpt lat="42.91775" lon="0.11879">
        <ele>1984</ele>
        <time>2009-02-05T13:39:03Z</time>
      </trkpt>
      <trkpt lat="42.91777" lon="0.11879">
        <ele>1986</ele>
        <time>2009-02-05T13:39:09Z</time>
      </trkpt>
      <trkpt lat="42.91779" lon="0.11877">
        <ele>1987</ele>
        <time>2009-02-05T13:39:12Z</time>
      </trkpt>
      <trkpt lat="42.91781" lon="0.11877">
        <ele>1989</ele>
        <time>2009-02-05T13:39:15Z</time>
      </trkpt>
      <trkpt lat="42.91781" lon="0.11875">
        <ele>1991</ele>
        <time>2009-02-05T13:39:18Z</time>
      </trkpt>
      <trkpt lat="42.91783" lon="0.11875">
        <ele>1991</ele>
        <time>2009-02-05T13:39:19Z</time>
      </trkpt>
      <trkpt lat="42.91788" lon="0.1187">
        <ele>1994</ele>
        <time>2009-02-05T13:39:27Z</time>
      </trkpt>
      <trkpt lat="42.91792" lon="0.11868">
        <ele>1994</ele>
        <time>2009-02-05T13:39:34Z</time>
      </trkpt>
      <trkpt lat="42.91796" lon="0.11866">
        <ele>1994</ele>
        <time>2009-02-05T13:39:39Z</time>
      </trkpt>
      <trkpt lat="42.91798" lon="0.11866">
        <ele>1994</ele>
        <time>2009-02-05T13:39:43Z</time>
      </trkpt>
      <trkpt lat="42.91803" lon="0.11864">
        <ele>1995</ele>
        <time>2009-02-05T13:39:48Z</time>
      </trkpt>
      <trkpt lat="42.91803" lon="0.1186">
        <ele>1998</ele>
        <time>2009-02-05T13:39:51Z</time>
      </trkpt>
      <trkpt lat="42.91805" lon="0.11855">
        <ele>1999</ele>
        <time>2009-02-05T13:39:56Z</time>
      </trkpt>
      <trkpt lat="42.91807" lon="0.11853">
        <ele>2002</ele>
        <time>2009-02-05T13:40:00Z</time>
      </trkpt>
      <trkpt lat="42.91809" lon="0.11853">
        <ele>2002</ele>
        <time>2009-02-05T13:40:01Z</time>
      </trkpt>
      <trkpt lat="42.91809" lon="0.11849">
        <ele>2006</ele>
        <time>2009-02-05T13:40:04Z</time>
      </trkpt>
      <trkpt lat="42.91809" lon="0.11849">
        <ele>2007</ele>
        <time>2009-02-05T13:40:06Z</time>
      </trkpt>
      <trkpt lat="42.91813" lon="0.11851">
        <ele>2007</ele>
        <time>2009-02-05T13:40:10Z</time>
      </trkpt>
      <trkpt lat="42.9182" lon="0.11845">
        <ele>2010</ele>
        <time>2009-02-05T13:40:31Z</time>
      </trkpt>
      <trkpt lat="42.9182" lon="0.11842">
        <ele>2008</ele>
        <time>2009-02-05T13:40:34Z</time>
      </trkpt>
      <trkpt lat="42.91822" lon="0.1184">
        <ele>2008</ele>
        <time>2009-02-05T13:40:37Z</time>
      </trkpt>
      <trkpt lat="42.91822" lon="0.11836">
        <ele>2010</ele>
        <time>2009-02-05T13:40:41Z</time>
      </trkpt>
      <trkpt lat="42.91824" lon="0.11832">
        <ele>2010</ele>
        <time>2009-02-05T13:40:44Z</time>
      </trkpt>
      <trkpt lat="42.91831" lon="0.11817">
        <ele>2014</ele>
        <time>2009-02-05T13:41:02Z</time>
      </trkpt>
      <trkpt lat="42.91833" lon="0.11804">
        <ele>2019</ele>
        <time>2009-02-05T13:41:16Z</time>
      </trkpt>
      <trkpt lat="42.91835" lon="0.11791">
        <ele>2022</ele>
        <time>2009-02-05T13:41:36Z</time>
      </trkpt>
      <trkpt lat="42.91841" lon="0.11782">
        <ele>2026</ele>
        <time>2009-02-05T13:41:52Z</time>
      </trkpt>
      <trkpt lat="42.91841" lon="0.1178">
        <ele>2025</ele>
        <time>2009-02-05T13:41:54Z</time>
      </trkpt>
      <trkpt lat="42.91848" lon="0.11774">
        <ele>2027</ele>
        <time>2009-02-05T13:42:02Z</time>
      </trkpt>
      <trkpt lat="42.9185" lon="0.11774">
        <ele>2026</ele>
        <time>2009-02-05T13:42:05Z</time>
      </trkpt>
      <trkpt lat="42.91854" lon="0.11772">
        <ele>2027</ele>
        <time>2009-02-05T13:42:09Z</time>
      </trkpt>
      <trkpt lat="42.91858" lon="0.11772">
        <ele>2027</ele>
        <time>2009-02-05T13:42:16Z</time>
      </trkpt>
      <trkpt lat="42.91861" lon="0.11767">
        <ele>2028</ele>
        <time>2009-02-05T13:42:21Z</time>
      </trkpt>
      <trkpt lat="42.91865" lon="0.11767">
        <ele>2029</ele>
        <time>2009-02-05T13:42:27Z</time>
      </trkpt>
      <trkpt lat="42.91869" lon="0.11763">
        <ele>2030</ele>
        <time>2009-02-05T13:42:37Z</time>
      </trkpt>
      <trkpt lat="42.91871" lon="0.11761">
        <ele>2031</ele>
        <time>2009-02-05T13:42:40Z</time>
      </trkpt>
      <trkpt lat="42.91873" lon="0.11763">
        <ele>2024</ele>
        <time>2009-02-05T13:42:50Z</time>
      </trkpt>
      <trkpt lat="42.91878" lon="0.11757">
        <ele>2032</ele>
        <time>2009-02-05T13:43:07Z</time>
      </trkpt>
      <trkpt lat="42.91882" lon="0.1175">
        <ele>2041</ele>
        <time>2009-02-05T13:43:19Z</time>
      </trkpt>
      <trkpt lat="42.91882" lon="0.1175">
        <ele>2043</ele>
        <time>2009-02-05T13:43:24Z</time>
      </trkpt>
      <trkpt lat="42.91886" lon="0.11748">
        <ele>2044</ele>
        <time>2009-02-05T13:43:29Z</time>
      </trkpt>
      <trkpt lat="42.91888" lon="0.11748">
        <ele>2043</ele>
        <time>2009-02-05T13:43:31Z</time>
      </trkpt>
      <trkpt lat="42.91891" lon="0.11746">
        <ele>2045</ele>
        <time>2009-02-05T13:43:35Z</time>
      </trkpt>
      <trkpt lat="42.91891" lon="0.11746">
        <ele>2043</ele>
        <time>2009-02-05T13:43:46Z</time>
      </trkpt>
      <trkpt lat="42.91897" lon="0.11744">
        <ele>2045</ele>
        <time>2009-02-05T13:44:02Z</time>
      </trkpt>
      <trkpt lat="42.91901" lon="0.11742">
        <ele>2047</ele>
        <time>2009-02-05T13:44:10Z</time>
      </trkpt>
      <trkpt lat="42.91906" lon="0.11739">
        <ele>2046</ele>
        <time>2009-02-05T13:44:14Z</time>
      </trkpt>
      <trkpt lat="42.9191" lon="0.11737">
        <ele>2046</ele>
        <time>2009-02-05T13:44:19Z</time>
      </trkpt>
      <trkpt lat="42.91914" lon="0.11731">
        <ele>2052</ele>
        <time>2009-02-05T13:44:30Z</time>
      </trkpt>
      <trkpt lat="42.91916" lon="0.11731">
        <ele>2052</ele>
        <time>2009-02-05T13:44:34Z</time>
      </trkpt>
      <trkpt lat="42.91919" lon="0.11731">
        <ele>2052</ele>
        <time>2009-02-05T13:44:37Z</time>
      </trkpt>
      <trkpt lat="42.91923" lon="0.11729">
        <ele>2053</ele>
        <time>2009-02-05T13:44:43Z</time>
      </trkpt>
      <trkpt lat="42.91929" lon="0.11724">
        <ele>2054</ele>
        <time>2009-02-05T13:44:51Z</time>
      </trkpt>
      <trkpt lat="42.91934" lon="0.11724">
        <ele>2052</ele>
        <time>2009-02-05T13:44:54Z</time>
      </trkpt>
      <trkpt lat="42.91938" lon="0.11722">
        <ele>2051</ele>
        <time>2009-02-05T13:44:58Z</time>
      </trkpt>
      <trkpt lat="42.91946" lon="0.1172">
        <ele>2052</ele>
        <time>2009-02-05T13:45:13Z</time>
      </trkpt>
      <trkpt lat="42.91957" lon="0.11716">
        <ele>2055</ele>
        <time>2009-02-05T13:45:30Z</time>
      </trkpt>
      <trkpt lat="42.91959" lon="0.11716">
        <ele>2055</ele>
        <time>2009-02-05T13:46:02Z</time>
      </trkpt>
      <trkpt lat="42.91964" lon="0.11718">
        <ele>2056</ele>
        <time>2009-02-05T13:46:08Z</time>
      </trkpt>
      <trkpt lat="42.91968" lon="0.1172">
        <ele>2055</ele>
        <time>2009-02-05T13:46:12Z</time>
      </trkpt>
      <trkpt lat="42.91976" lon="0.11722">
        <ele>2055</ele>
        <time>2009-02-05T13:46:19Z</time>
      </trkpt>
      <trkpt lat="42.91979" lon="0.11722">
        <ele>2055</ele>
        <time>2009-02-05T13:46:21Z</time>
      </trkpt>
      <trkpt lat="42.91983" lon="0.1172">
        <ele>2056</ele>
        <time>2009-02-05T13:46:26Z</time>
      </trkpt>
      <trkpt lat="42.91989" lon="0.11718">
        <ele>2054</ele>
        <time>2009-02-05T13:46:31Z</time>
      </trkpt>
      <trkpt lat="42.92" lon="0.11718">
        <ele>2053</ele>
        <time>2009-02-05T13:46:43Z</time>
      </trkpt>
      <trkpt lat="42.92004" lon="0.11712">
        <ele>2052</ele>
        <time>2009-02-05T13:46:49Z</time>
      </trkpt>
      <trkpt lat="42.92006" lon="0.11712">
        <ele>2054</ele>
        <time>2009-02-05T13:46:53Z</time>
      </trkpt>
      <trkpt lat="42.92009" lon="0.11714">
        <ele>2054</ele>
        <time>2009-02-05T13:46:55Z</time>
      </trkpt>
      <trkpt lat="42.92015" lon="0.11712">
        <ele>2054</ele>
        <time>2009-02-05T13:47:02Z</time>
      </trkpt>
      <trkpt lat="42.92024" lon="0.11709">
        <ele>2051</ele>
        <time>2009-02-05T13:47:10Z</time>
      </trkpt>
      <trkpt lat="42.92037" lon="0.11709">
        <ele>2050</ele>
        <time>2009-02-05T13:47:27Z</time>
      </trkpt>
      <trkpt lat="42.92043" lon="0.11707">
        <ele>2051</ele>
        <time>2009-02-05T13:47:36Z</time>
      </trkpt>
      <trkpt lat="42.92064" lon="0.11712">
        <ele>2051</ele>
        <time>2009-02-05T13:48:00Z</time>
      </trkpt>
      <trkpt lat="42.92071" lon="0.11712">
        <ele>2052</ele>
        <time>2009-02-05T13:48:06Z</time>
      </trkpt>
      <trkpt lat="42.92071" lon="0.11709">
        <ele>2055</ele>
        <time>2009-02-05T13:48:09Z</time>
      </trkpt>
      <trkpt lat="42.92073" lon="0.11709">
        <ele>2055</ele>
        <time>2009-02-05T13:48:11Z</time>
      </trkpt>
      <trkpt lat="42.92073" lon="0.11707">
        <ele>2055</ele>
        <time>2009-02-05T13:48:13Z</time>
      </trkpt>
      <trkpt lat="42.92086" lon="0.11701">
        <ele>2055</ele>
        <time>2009-02-05T13:48:28Z</time>
      </trkpt>
      <trkpt lat="42.92097" lon="0.11703">
        <ele>2056</ele>
        <time>2009-02-05T13:48:40Z</time>
      </trkpt>
      <trkpt lat="42.92101" lon="0.11701">
        <ele>2056</ele>
        <time>2009-02-05T13:48:43Z</time>
      </trkpt>
      <trkpt lat="42.92105" lon="0.11703">
        <ele>2056</ele>
        <time>2009-02-05T13:48:47Z</time>
      </trkpt>
      <trkpt lat="42.92109" lon="0.11703">
        <ele>2056</ele>
        <time>2009-02-05T13:48:50Z</time>
      </trkpt>
      <trkpt lat="42.92116" lon="0.11705">
        <ele>2056</ele>
        <time>2009-02-05T13:48:59Z</time>
      </trkpt>
      <trkpt lat="42.9212" lon="0.11703">
        <ele>2057</ele>
        <time>2009-02-05T13:49:03Z</time>
      </trkpt>
      <trkpt lat="42.9212" lon="0.11701">
        <ele>2064</ele>
        <time>2009-02-05T13:49:15Z</time>
      </trkpt>
      <trkpt lat="42.9212" lon="0.11697">
        <ele>2063</ele>
        <time>2009-02-05T13:49:34Z</time>
      </trkpt>
      <trkpt lat="42.9212" lon="0.11694">
        <ele>2066</ele>
        <time>2009-02-05T13:49:52Z</time>
      </trkpt>
      <trkpt lat="42.92125" lon="0.11694">
        <ele>2047</ele>
        <time>2009-02-05T13:52:47Z</time>
      </trkpt>
      <trkpt lat="42.92131" lon="0.11707">
        <ele>2053</ele>
        <time>2009-02-05T13:53:11Z</time>
      </trkpt>
      <trkpt lat="42.92131" lon="0.11707">
        <ele>2058</ele>
        <time>2009-02-05T13:53:26Z</time>
      </trkpt>
      <trkpt lat="42.9214" lon="0.11712">
        <ele>2061</ele>
        <time>2009-02-05T13:53:43Z</time>
      </trkpt>
      <trkpt lat="42.92159" lon="0.11714">
        <ele>2059</ele>
        <time>2009-02-05T13:54:05Z</time>
      </trkpt>
      <trkpt lat="42.92161" lon="0.11714">
        <ele>2058</ele>
        <time>2009-02-05T13:54:07Z</time>
      </trkpt>
      <trkpt lat="42.9218" lon="0.11716">
        <ele>2055</ele>
        <time>2009-02-05T13:54:31Z</time>
      </trkpt>
      <trkpt lat="42.92189" lon="0.11712">
        <ele>2055</ele>
        <time>2009-02-05T13:54:45Z</time>
      </trkpt>
      <trkpt lat="42.92193" lon="0.11712">
        <ele>2055</ele>
        <time>2009-02-05T13:54:51Z</time>
      </trkpt>
      <trkpt lat="42.9221" lon="0.11709">
        <ele>2057</ele>
        <time>2009-02-05T13:55:08Z</time>
      </trkpt>
      <trkpt lat="42.92215" lon="0.11712">
        <ele>2058</ele>
        <time>2009-02-05T13:55:12Z</time>
      </trkpt>
      <trkpt lat="42.92219" lon="0.11714">
        <ele>2058</ele>
        <time>2009-02-05T13:55:16Z</time>
      </trkpt>
      <trkpt lat="42.92219" lon="0.11712">
        <ele>2058</ele>
        <time>2009-02-05T13:55:17Z</time>
      </trkpt>
      <trkpt lat="42.92223" lon="0.11714">
        <ele>2059</ele>
        <time>2009-02-05T13:55:20Z</time>
      </trkpt>
      <trkpt lat="42.92225" lon="0.11714">
        <ele>2059</ele>
        <time>2009-02-05T13:55:23Z</time>
      </trkpt>
      <trkpt lat="42.92228" lon="0.11716">
        <ele>2058</ele>
        <time>2009-02-05T13:55:26Z</time>
      </trkpt>
      <trkpt lat="42.92234" lon="0.11714">
        <ele>2053</ele>
        <time>2009-02-05T13:55:32Z</time>
      </trkpt>
      <trkpt lat="42.92238" lon="0.1172">
        <ele>2053</ele>
        <time>2009-02-05T13:55:39Z</time>
      </trkpt>
      <trkpt lat="42.92243" lon="0.1172">
        <ele>2053</ele>
        <time>2009-02-05T13:55:44Z</time>
      </trkpt>
      <trkpt lat="42.92247" lon="0.11724">
        <ele>2053</ele>
        <time>2009-02-05T13:55:50Z</time>
      </trkpt>
      <trkpt lat="42.92251" lon="0.11722">
        <ele>2054</ele>
        <time>2009-02-05T13:56:06Z</time>
      </trkpt>
      <trkpt lat="42.92251" lon="0.11722">
        <ele>2054</ele>
        <time>2009-02-05T13:56:16Z</time>
      </trkpt>
      <trkpt lat="42.92262" lon="0.11724">
        <ele>2056</ele>
        <time>2009-02-05T13:56:20Z</time>
      </trkpt>
      <trkpt lat="42.92268" lon="0.11722">
        <ele>2056</ele>
        <time>2009-02-05T13:56:34Z</time>
      </trkpt>
      <trkpt lat="42.92277" lon="0.11714">
        <ele>2057</ele>
        <time>2009-02-05T13:57:46Z</time>
      </trkpt>
      <trkpt lat="42.92279" lon="0.11716">
        <ele>2057</ele>
        <time>2009-02-05T13:57:49Z</time>
      </trkpt>
      <trkpt lat="42.92283" lon="0.11722">
        <ele>2057</ele>
        <time>2009-02-05T13:57:58Z</time>
      </trkpt>
      <trkpt lat="42.92285" lon="0.11724">
        <ele>2057</ele>
        <time>2009-02-05T13:58:02Z</time>
      </trkpt>
      <trkpt lat="42.92298" lon="0.11733">
        <ele>2057</ele>
        <time>2009-02-05T13:58:21Z</time>
      </trkpt>
      <trkpt lat="42.92298" lon="0.11731">
        <ele>2065</ele>
        <time>2009-02-05T13:58:32Z</time>
      </trkpt>
      <trkpt lat="42.92305" lon="0.11724">
        <ele>2074</ele>
        <time>2009-02-05T13:58:54Z</time>
      </trkpt>
      <trkpt lat="42.92307" lon="0.11709">
        <ele>2088</ele>
        <time>2009-02-05T13:59:11Z</time>
      </trkpt>
      <trkpt lat="42.92309" lon="0.11703">
        <ele>2089</ele>
        <time>2009-02-05T13:59:27Z</time>
      </trkpt>
      <trkpt lat="42.92311" lon="0.11694">
        <ele>2090</ele>
        <time>2009-02-05T13:59:39Z</time>
      </trkpt>
      <trkpt lat="42.92245" lon="0.11688">
        <ele>2241</ele>
        <time>2009-02-05T13:59:48Z</time>
      </trkpt>
      <trkpt lat="42.92285" lon="0.11684">
        <ele>2143</ele>
        <time>2009-02-05T13:59:59Z</time>
      </trkpt>
      <trkpt lat="42.92281" lon="0.11682">
        <ele>2132</ele>
        <time>2009-02-05T14:01:03Z</time>
      </trkpt>
      <trkpt lat="42.92296" lon="0.11673">
        <ele>2133</ele>
        <time>2009-02-05T14:01:13Z</time>
      </trkpt>
      <trkpt lat="42.92307" lon="0.11688">
        <ele>2135</ele>
        <time>2009-02-05T14:01:36Z</time>
      </trkpt>
      <trkpt lat="42.92315" lon="0.11692">
        <ele>2135</ele>
        <time>2009-02-05T14:01:45Z</time>
      </trkpt>
      <trkpt lat="42.92318" lon="0.11694">
        <ele>2130</ele>
        <time>2009-02-05T14:02:01Z</time>
      </trkpt>
      <trkpt lat="42.9232" lon="0.1169">
        <ele>2129</ele>
        <time>2009-02-05T14:02:07Z</time>
      </trkpt>
      <trkpt lat="42.9232" lon="0.11688">
        <ele>2129</ele>
        <time>2009-02-05T14:02:10Z</time>
      </trkpt>
      <trkpt lat="42.92322" lon="0.11684">
        <ele>2128</ele>
        <time>2009-02-05T14:02:13Z</time>
      </trkpt>
      <trkpt lat="42.92326" lon="0.11675">
        <ele>2129</ele>
        <time>2009-02-05T14:02:25Z</time>
      </trkpt>
      <trkpt lat="42.92324" lon="0.11673">
        <ele>2129</ele>
        <time>2009-02-05T14:02:27Z</time>
      </trkpt>
      <trkpt lat="42.92324" lon="0.11671">
        <ele>2129</ele>
        <time>2009-02-05T14:02:30Z</time>
      </trkpt>
      <trkpt lat="42.92322" lon="0.11669">
        <ele>2130</ele>
        <time>2009-02-05T14:02:34Z</time>
      </trkpt>
      <trkpt lat="42.9232" lon="0.11664">
        <ele>2131</ele>
        <time>2009-02-05T14:02:54Z</time>
      </trkpt>
      <trkpt lat="42.92322" lon="0.11664">
        <ele>2138</ele>
        <time>2009-02-05T14:03:41Z</time>
      </trkpt>
      <trkpt lat="42.92331" lon="0.1166">
        <ele>2138</ele>
        <time>2009-02-05T14:03:47Z</time>
      </trkpt>
      <trkpt lat="42.92326" lon="0.11656">
        <ele>2139</ele>
        <time>2009-02-05T14:03:54Z</time>
      </trkpt>
      <trkpt lat="42.92326" lon="0.11656">
        <ele>2141</ele>
        <time>2009-02-05T14:04:03Z</time>
      </trkpt>
      <trkpt lat="42.92324" lon="0.11656">
        <ele>2143</ele>
        <time>2009-02-05T14:04:04Z</time>
      </trkpt>
      <trkpt lat="42.92324" lon="0.11652">
        <ele>2144</ele>
        <time>2009-02-05T14:04:09Z</time>
      </trkpt>
      <trkpt lat="42.92324" lon="0.11649">
        <ele>2146</ele>
        <time>2009-02-05T14:04:21Z</time>
      </trkpt>
      <trkpt lat="42.9232" lon="0.11652">
        <ele>2153</ele>
        <time>2009-02-05T14:04:49Z</time>
      </trkpt>
      <trkpt lat="42.92315" lon="0.11649">
        <ele>2152</ele>
        <time>2009-02-05T14:04:53Z</time>
      </trkpt>
      <trkpt lat="42.92313" lon="0.11645">
        <ele>2152</ele>
        <time>2009-02-05T14:04:57Z</time>
      </trkpt>
      <trkpt lat="42.92313" lon="0.11639">
        <ele>2154</ele>
        <time>2009-02-05T14:05:02Z</time>
      </trkpt>
      <trkpt lat="42.92311" lon="0.11634">
        <ele>2154</ele>
        <time>2009-02-05T14:05:06Z</time>
      </trkpt>
      <trkpt lat="42.92315" lon="0.11632">
        <ele>2153</ele>
        <time>2009-02-05T14:05:09Z</time>
      </trkpt>
      <trkpt lat="42.92315" lon="0.11628">
        <ele>2154</ele>
        <time>2009-02-05T14:05:13Z</time>
      </trkpt>
      <trkpt lat="42.92315" lon="0.11624">
        <ele>2155</ele>
        <time>2009-02-05T14:05:16Z</time>
      </trkpt>
      <trkpt lat="42.92315" lon="0.11619">
        <ele>2156</ele>
        <time>2009-02-05T14:05:21Z</time>
      </trkpt>
      <trkpt lat="42.92315" lon="0.11619">
        <ele>2156</ele>
        <time>2009-02-05T14:05:22Z</time>
      </trkpt>
      <trkpt lat="42.92318" lon="0.11611">
        <ele>2157</ele>
        <time>2009-02-05T14:05:30Z</time>
      </trkpt>
      <trkpt lat="42.9232" lon="0.11609">
        <ele>2158</ele>
        <time>2009-02-05T14:05:33Z</time>
      </trkpt>
      <trkpt lat="42.9232" lon="0.11604">
        <ele>2160</ele>
        <time>2009-02-05T14:05:35Z</time>
      </trkpt>
      <trkpt lat="42.92326" lon="0.11583">
        <ele>2161</ele>
        <time>2009-02-05T14:05:56Z</time>
      </trkpt>
      <trkpt lat="42.92326" lon="0.11576">
        <ele>2160</ele>
        <time>2009-02-05T14:06:05Z</time>
      </trkpt>
      <trkpt lat="42.92343" lon="0.11557">
        <ele>2160</ele>
        <time>2009-02-05T14:06:31Z</time>
      </trkpt>
      <trkpt lat="42.92343" lon="0.11557">
        <ele>2160</ele>
        <time>2009-02-05T14:06:33Z</time>
      </trkpt>
      <trkpt lat="42.92352" lon="0.11551">
        <ele>2160</ele>
        <time>2009-02-05T14:06:46Z</time>
      </trkpt>
      <trkpt lat="42.92354" lon="0.11549">
        <ele>2160</ele>
        <time>2009-02-05T14:06:49Z</time>
      </trkpt>
      <trkpt lat="42.92363" lon="0.11546">
        <ele>2160</ele>
        <time>2009-02-05T14:07:02Z</time>
      </trkpt>
      <trkpt lat="42.92373" lon="0.11544">
        <ele>2160</ele>
        <time>2009-02-05T14:07:13Z</time>
      </trkpt>
      <trkpt lat="42.92386" lon="0.11544">
        <ele>2160</ele>
        <time>2009-02-05T14:07:31Z</time>
      </trkpt>
      <trkpt lat="42.92391" lon="0.11546">
        <ele>2160</ele>
        <time>2009-02-05T14:07:36Z</time>
      </trkpt>
      <trkpt lat="42.92414" lon="0.11555">
        <ele>2160</ele>
        <time>2009-02-05T14:08:05Z</time>
      </trkpt>
      <trkpt lat="42.92421" lon="0.11559">
        <ele>2160</ele>
        <time>2009-02-05T14:08:12Z</time>
      </trkpt>
      <trkpt lat="42.92451" lon="0.11579">
        <ele>2160</ele>
        <time>2009-02-05T14:08:48Z</time>
      </trkpt>
      <trkpt lat="42.92466" lon="0.11585">
        <ele>2160</ele>
        <time>2009-02-05T14:09:05Z</time>
      </trkpt>
      <trkpt lat="42.92468" lon="0.11585">
        <ele>2160</ele>
        <time>2009-02-05T14:09:07Z</time>
      </trkpt>
      <trkpt lat="42.92487" lon="0.11591">
        <ele>2160</ele>
        <time>2009-02-05T14:09:31Z</time>
      </trkpt>
      <trkpt lat="42.92502" lon="0.11604">
        <ele>2160</ele>
        <time>2009-02-05T14:09:54Z</time>
      </trkpt>
      <trkpt lat="42.92489" lon="0.1154">
        <ele>2163</ele>
        <time>2009-02-05T14:10:01Z</time>
      </trkpt>
      <trkpt lat="42.92483" lon="0.11557">
        <ele>2163</ele>
        <time>2009-02-05T14:10:05Z</time>
      </trkpt>
      <trkpt lat="42.92487" lon="0.11557">
        <ele>2163</ele>
        <time>2009-02-05T14:10:07Z</time>
      </trkpt>
      <trkpt lat="42.925" lon="0.11557">
        <ele>2163</ele>
        <time>2009-02-05T14:10:10Z</time>
      </trkpt>
      <trkpt lat="42.92504" lon="0.11557">
        <ele>2163</ele>
        <time>2009-02-05T14:10:13Z</time>
      </trkpt>
      <trkpt lat="42.92515" lon="0.11566">
        <ele>2163</ele>
        <time>2009-02-05T14:10:29Z</time>
      </trkpt>
      <trkpt lat="42.92536" lon="0.11574">
        <ele>2163</ele>
        <time>2009-02-05T14:10:44Z</time>
      </trkpt>
      <trkpt lat="42.92528" lon="0.11486">
        <ele>2167</ele>
        <time>2009-02-05T14:11:01Z</time>
      </trkpt>
      <trkpt lat="42.92558" lon="0.11529">
        <ele>2167</ele>
        <time>2009-02-05T14:11:04Z</time>
      </trkpt>
      <trkpt lat="42.92558" lon="0.11555">
        <ele>2169</ele>
        <time>2009-02-05T14:11:08Z</time>
      </trkpt>
      <trkpt lat="42.92579" lon="0.1154">
        <ele>2170</ele>
        <time>2009-02-05T14:11:27Z</time>
      </trkpt>
      <trkpt lat="42.92592" lon="0.11529">
        <ele>2171</ele>
        <time>2009-02-05T14:11:30Z</time>
      </trkpt>
      <trkpt lat="42.92586" lon="0.11533">
        <ele>2171</ele>
        <time>2009-02-05T14:11:34Z</time>
      </trkpt>
      <trkpt lat="42.92612" lon="0.11521">
        <ele>2171</ele>
        <time>2009-02-05T14:11:59Z</time>
      </trkpt>
      <trkpt lat="42.92614" lon="0.11529">
        <ele>2171</ele>
        <time>2009-02-05T14:12:07Z</time>
      </trkpt>
      <trkpt lat="42.92616" lon="0.11527">
        <ele>2176</ele>
        <time>2009-02-05T14:12:11Z</time>
      </trkpt>
      <trkpt lat="42.92637" lon="0.11523">
        <ele>2177</ele>
        <time>2009-02-05T14:12:35Z</time>
      </trkpt>
      <trkpt lat="42.92637" lon="0.11523">
        <ele>2178</ele>
        <time>2009-02-05T14:12:37Z</time>
      </trkpt>
      <trkpt lat="42.92637" lon="0.11516">
        <ele>2185</ele>
        <time>2009-02-05T14:12:43Z</time>
      </trkpt>
      <trkpt lat="42.92642" lon="0.11499">
        <ele>2194</ele>
        <time>2009-02-05T14:12:58Z</time>
      </trkpt>
      <trkpt lat="42.92648" lon="0.11495">
        <ele>2194</ele>
        <time>2009-02-05T14:13:03Z</time>
      </trkpt>
      <trkpt lat="42.92652" lon="0.11482">
        <ele>2200</ele>
        <time>2009-02-05T14:13:14Z</time>
      </trkpt>
      <trkpt lat="42.92655" lon="0.11478">
        <ele>2203</ele>
        <time>2009-02-05T14:13:19Z</time>
      </trkpt>
      <trkpt lat="42.92657" lon="0.11473">
        <ele>2203</ele>
        <time>2009-02-05T14:13:23Z</time>
      </trkpt>
      <trkpt lat="42.92659" lon="0.11471">
        <ele>2203</ele>
        <time>2009-02-05T14:13:27Z</time>
      </trkpt>
      <trkpt lat="42.92663" lon="0.11469">
        <ele>2203</ele>
        <time>2009-02-05T14:13:31Z</time>
      </trkpt>
      <trkpt lat="42.92665" lon="0.11467">
        <ele>2205</ele>
        <time>2009-02-05T14:13:34Z</time>
      </trkpt>
      <trkpt lat="42.92672" lon="0.11465">
        <ele>2204</ele>
        <time>2009-02-05T14:13:41Z</time>
      </trkpt>
      <trkpt lat="42.92676" lon="0.11465">
        <ele>2205</ele>
        <time>2009-02-05T14:13:46Z</time>
      </trkpt>
      <trkpt lat="42.92676" lon="0.11463">
        <ele>2208</ele>
        <time>2009-02-05T14:13:48Z</time>
      </trkpt>
      <trkpt lat="42.92678" lon="0.11463">
        <ele>2208</ele>
        <time>2009-02-05T14:13:50Z</time>
      </trkpt>
      <trkpt lat="42.92687" lon="0.11461">
        <ele>2208</ele>
        <time>2009-02-05T14:13:59Z</time>
      </trkpt>
      <trkpt lat="42.92687" lon="0.11461">
        <ele>2208</ele>
        <time>2009-02-05T14:14:01Z</time>
      </trkpt>
      <trkpt lat="42.92689" lon="0.11461">
        <ele>2208</ele>
        <time>2009-02-05T14:14:04Z</time>
      </trkpt>
      <trkpt lat="42.92695" lon="0.11471">
        <ele>2208</ele>
        <time>2009-02-05T14:14:17Z</time>
      </trkpt>
      <trkpt lat="42.927" lon="0.11478">
        <ele>2210</ele>
        <time>2009-02-05T14:14:28Z</time>
      </trkpt>
      <trkpt lat="42.92706" lon="0.1148">
        <ele>2212</ele>
        <time>2009-02-05T14:14:45Z</time>
      </trkpt>
      <trkpt lat="42.92712" lon="0.11484">
        <ele>2212</ele>
        <time>2009-02-05T14:15:00Z</time>
      </trkpt>
      <trkpt lat="42.92721" lon="0.11488">
        <ele>2212</ele>
        <time>2009-02-05T14:15:17Z</time>
      </trkpt>
      <trkpt lat="42.92736" lon="0.11482">
        <ele>2215</ele>
        <time>2009-02-05T14:15:41Z</time>
      </trkpt>
      <trkpt lat="42.92738" lon="0.1148">
        <ele>2217</ele>
        <time>2009-02-05T14:15:52Z</time>
      </trkpt>
      <trkpt lat="42.9274" lon="0.11476">
        <ele>2223</ele>
        <time>2009-02-05T14:16:05Z</time>
      </trkpt>
      <trkpt lat="42.92758" lon="0.11458">
        <ele>2228</ele>
        <time>2009-02-05T14:16:57Z</time>
      </trkpt>
      <trkpt lat="42.92764" lon="0.11448">
        <ele>2236</ele>
        <time>2009-02-05T14:17:11Z</time>
      </trkpt>
      <trkpt lat="42.92766" lon="0.11446">
        <ele>2237</ele>
        <time>2009-02-05T14:17:14Z</time>
      </trkpt>
      <trkpt lat="42.92779" lon="0.11443">
        <ele>2237</ele>
        <time>2009-02-05T14:17:31Z</time>
      </trkpt>
      <trkpt lat="42.92781" lon="0.11443">
        <ele>2239</ele>
        <time>2009-02-05T14:17:34Z</time>
      </trkpt>
      <trkpt lat="42.92798" lon="0.11439">
        <ele>2239</ele>
        <time>2009-02-05T14:17:56Z</time>
      </trkpt>
      <trkpt lat="42.92805" lon="0.11443">
        <ele>2239</ele>
        <time>2009-02-05T14:18:04Z</time>
      </trkpt>
      <trkpt lat="42.92807" lon="0.11446">
        <ele>2240</ele>
        <time>2009-02-05T14:18:10Z</time>
      </trkpt>
      <trkpt lat="42.92815" lon="0.11441">
        <ele>2253</ele>
        <time>2009-02-05T14:18:21Z</time>
      </trkpt>
      <trkpt lat="42.92815" lon="0.11439">
        <ele>2258</ele>
        <time>2009-02-05T14:19:33Z</time>
      </trkpt>
      <trkpt lat="42.92815" lon="0.11437">
        <ele>2258</ele>
        <time>2009-02-05T14:19:34Z</time>
      </trkpt>
      <trkpt lat="42.92818" lon="0.11435">
        <ele>2258</ele>
        <time>2009-02-05T14:19:39Z</time>
      </trkpt>
      <trkpt lat="42.92822" lon="0.11435">
        <ele>2258</ele>
        <time>2009-02-05T14:19:43Z</time>
      </trkpt>
      <trkpt lat="42.92824" lon="0.11437">
        <ele>2258</ele>
        <time>2009-02-05T14:19:46Z</time>
      </trkpt>
      <trkpt lat="42.9283" lon="0.11433">
        <ele>2260</ele>
        <time>2009-02-05T14:19:51Z</time>
      </trkpt>
      <trkpt lat="42.92837" lon="0.11433">
        <ele>2260</ele>
        <time>2009-02-05T14:20:00Z</time>
      </trkpt>
      <trkpt lat="42.92841" lon="0.11431">
        <ele>2265</ele>
        <time>2009-02-05T14:20:09Z</time>
      </trkpt>
      <trkpt lat="42.92845" lon="0.11435">
        <ele>2265</ele>
        <time>2009-02-05T14:20:20Z</time>
      </trkpt>
      <trkpt lat="42.92852" lon="0.11441">
        <ele>2265</ele>
        <time>2009-02-05T14:20:29Z</time>
      </trkpt>
      <trkpt lat="42.92854" lon="0.11441">
        <ele>2265</ele>
        <time>2009-02-05T14:20:34Z</time>
      </trkpt>
      <trkpt lat="42.92858" lon="0.11441">
        <ele>2266</ele>
        <time>2009-02-05T14:20:39Z</time>
      </trkpt>
      <trkpt lat="42.92863" lon="0.11441">
        <ele>2268</ele>
        <time>2009-02-05T14:20:44Z</time>
      </trkpt>
      <trkpt lat="42.92867" lon="0.11439">
        <ele>2269</ele>
        <time>2009-02-05T14:20:54Z</time>
      </trkpt>
      <trkpt lat="42.92871" lon="0.11437">
        <ele>2269</ele>
        <time>2009-02-05T14:20:57Z</time>
      </trkpt>
      <trkpt lat="42.92871" lon="0.11441">
        <ele>2269</ele>
        <time>2009-02-05T14:21:01Z</time>
      </trkpt>
      <trkpt lat="42.92878" lon="0.11437">
        <ele>2273</ele>
        <time>2009-02-05T14:21:13Z</time>
      </trkpt>
      <trkpt lat="42.92884" lon="0.11433">
        <ele>2275</ele>
        <time>2009-02-05T14:21:30Z</time>
      </trkpt>
      <trkpt lat="42.92893" lon="0.11433">
        <ele>2279</ele>
        <time>2009-02-05T14:21:46Z</time>
      </trkpt>
      <trkpt lat="42.92895" lon="0.11433">
        <ele>2279</ele>
        <time>2009-02-05T14:21:49Z</time>
      </trkpt>
      <trkpt lat="42.92901" lon="0.11433">
        <ele>2281</ele>
        <time>2009-02-05T14:21:54Z</time>
      </trkpt>
      <trkpt lat="42.92901" lon="0.11431">
        <ele>2282</ele>
        <time>2009-02-05T14:21:57Z</time>
      </trkpt>
      <trkpt lat="42.92903" lon="0.11428">
        <ele>2283</ele>
        <time>2009-02-05T14:22:00Z</time>
      </trkpt>
      <trkpt lat="42.92908" lon="0.11424">
        <ele>2283</ele>
        <time>2009-02-05T14:22:06Z</time>
      </trkpt>
      <trkpt lat="42.9291" lon="0.1142">
        <ele>2283</ele>
        <time>2009-02-05T14:22:15Z</time>
      </trkpt>
      <trkpt lat="42.92914" lon="0.11418">
        <ele>2278</ele>
        <time>2009-02-05T14:22:24Z</time>
      </trkpt>
      <trkpt lat="42.92918" lon="0.11415">
        <ele>2279</ele>
        <time>2009-02-05T14:22:43Z</time>
      </trkpt>
      <trkpt lat="42.92925" lon="0.11411">
        <ele>2279</ele>
        <time>2009-02-05T14:22:45Z</time>
      </trkpt>
      <trkpt lat="42.92927" lon="0.11409">
        <ele>2279</ele>
        <time>2009-02-05T14:22:47Z</time>
      </trkpt>
      <trkpt lat="42.92929" lon="0.11407">
        <ele>2279</ele>
        <time>2009-02-05T14:22:51Z</time>
      </trkpt>
      <trkpt lat="42.92931" lon="0.11409">
        <ele>2279</ele>
        <time>2009-02-05T14:22:54Z</time>
      </trkpt>
      <trkpt lat="42.92933" lon="0.11407">
        <ele>2279</ele>
        <time>2009-02-05T14:22:57Z</time>
      </trkpt>
      <trkpt lat="42.92936" lon="0.11405">
        <ele>2279</ele>
        <time>2009-02-05T14:22:59Z</time>
      </trkpt>
      <trkpt lat="42.92938" lon="0.11405">
        <ele>2279</ele>
        <time>2009-02-05T14:23:02Z</time>
      </trkpt>
      <trkpt lat="42.92942" lon="0.11405">
        <ele>2279</ele>
        <time>2009-02-05T14:23:05Z</time>
      </trkpt>
      <trkpt lat="42.92944" lon="0.114">
        <ele>2279</ele>
        <time>2009-02-05T14:23:08Z</time>
      </trkpt>
      <trkpt lat="42.92948" lon="0.11398">
        <ele>2279</ele>
        <time>2009-02-05T14:23:12Z</time>
      </trkpt>
      <trkpt lat="42.92951" lon="0.11396">
        <ele>2279</ele>
        <time>2009-02-05T14:23:14Z</time>
      </trkpt>
      <trkpt lat="42.92955" lon="0.1139">
        <ele>2279</ele>
        <time>2009-02-05T14:23:21Z</time>
      </trkpt>
      <trkpt lat="42.9297" lon="0.11379">
        <ele>2279</ele>
        <time>2009-02-05T14:23:51Z</time>
      </trkpt>
      <trkpt lat="42.92976" lon="0.11377">
        <ele>2279</ele>
        <time>2009-02-05T14:24:07Z</time>
      </trkpt>
      <trkpt lat="42.93026" lon="0.11396">
        <ele>2305</ele>
        <time>2009-02-05T14:26:33Z</time>
      </trkpt>
      <trkpt lat="42.93026" lon="0.11398">
        <ele>2305</ele>
        <time>2009-02-05T14:26:38Z</time>
      </trkpt>
      <trkpt lat="42.93034" lon="0.11394">
        <ele>2305</ele>
        <time>2009-02-05T14:26:52Z</time>
      </trkpt>
      <trkpt lat="42.93036" lon="0.11403">
        <ele>2316</ele>
        <time>2009-02-05T14:27:04Z</time>
      </trkpt>
      <trkpt lat="42.93036" lon="0.11385">
        <ele>2319</ele>
        <time>2009-02-05T14:27:24Z</time>
      </trkpt>
      <trkpt lat="42.93034" lon="0.11377">
        <ele>2318</ele>
        <time>2009-02-05T14:27:36Z</time>
      </trkpt>
      <trkpt lat="42.93034" lon="0.1137">
        <ele>2318</ele>
        <time>2009-02-05T14:27:43Z</time>
      </trkpt>
      <trkpt lat="42.93036" lon="0.11362">
        <ele>2316</ele>
        <time>2009-02-05T14:27:51Z</time>
      </trkpt>
      <trkpt lat="42.93036" lon="0.11349">
        <ele>2315</ele>
        <time>2009-02-05T14:28:05Z</time>
      </trkpt>
      <trkpt lat="42.93039" lon="0.11347">
        <ele>2318</ele>
        <time>2009-02-05T14:28:16Z</time>
      </trkpt>
      <trkpt lat="42.93039" lon="0.11338">
        <ele>2324</ele>
        <time>2009-02-05T14:28:31Z</time>
      </trkpt>
      <trkpt lat="42.93043" lon="0.11334">
        <ele>2322</ele>
        <time>2009-02-05T14:28:36Z</time>
      </trkpt>
      <trkpt lat="42.93045" lon="0.11334">
        <ele>2322</ele>
        <time>2009-02-05T14:28:48Z</time>
      </trkpt>
      <trkpt lat="42.93051" lon="0.11345">
        <ele>2322</ele>
        <time>2009-02-05T14:29:05Z</time>
      </trkpt>
      <trkpt lat="42.93067" lon="0.11353">
        <ele>2322</ele>
        <time>2009-02-05T14:29:32Z</time>
      </trkpt>
      <trkpt lat="42.93071" lon="0.11349">
        <ele>2319</ele>
        <time>2009-02-05T14:29:48Z</time>
      </trkpt>
      <trkpt lat="42.93064" lon="0.11366">
        <ele>2346</ele>
        <time>2009-02-05T14:32:23Z</time>
      </trkpt>
      <trkpt lat="42.93067" lon="0.11343">
        <ele>2346</ele>
        <time>2009-02-05T14:33:35Z</time>
      </trkpt>
      <trkpt lat="42.93069" lon="0.11338">
        <ele>2342</ele>
        <time>2009-02-05T14:33:46Z</time>
      </trkpt>
      <trkpt lat="42.93075" lon="0.11334">
        <ele>2343</ele>
        <time>2009-02-05T14:33:56Z</time>
      </trkpt>
      <trkpt lat="42.93084" lon="0.1133">
        <ele>2340</ele>
        <time>2009-02-05T14:34:11Z</time>
      </trkpt>
      <trkpt lat="42.93084" lon="0.11325">
        <ele>2344</ele>
        <time>2009-02-05T14:34:23Z</time>
      </trkpt>
      <trkpt lat="42.93088" lon="0.11321">
        <ele>2346</ele>
        <time>2009-02-05T14:34:32Z</time>
      </trkpt>
      <trkpt lat="42.93088" lon="0.11315">
        <ele>2348</ele>
        <time>2009-02-05T14:34:39Z</time>
      </trkpt>
      <trkpt lat="42.9309" lon="0.1131">
        <ele>2350</ele>
        <time>2009-02-05T14:34:49Z</time>
      </trkpt>
      <trkpt lat="42.93092" lon="0.11302">
        <ele>2350</ele>
        <time>2009-02-05T14:34:59Z</time>
      </trkpt>
      <trkpt lat="42.93086" lon="0.11293">
        <ele>2354</ele>
        <time>2009-02-05T14:35:11Z</time>
      </trkpt>
      <trkpt lat="42.93082" lon="0.11293">
        <ele>2358</ele>
        <time>2009-02-05T14:35:27Z</time>
      </trkpt>
      <trkpt lat="42.93086" lon="0.11295">
        <ele>2355</ele>
        <time>2009-02-05T14:35:45Z</time>
      </trkpt>
      <trkpt lat="42.9309" lon="0.11297">
        <ele>2355</ele>
        <time>2009-02-05T14:36:03Z</time>
      </trkpt>
      <trkpt lat="42.93097" lon="0.11304">
        <ele>2355</ele>
        <time>2009-02-05T14:36:12Z</time>
      </trkpt>
      <trkpt lat="42.93097" lon="0.1131">
        <ele>2357</ele>
        <time>2009-02-05T14:36:31Z</time>
      </trkpt>
      <trkpt lat="42.93097" lon="0.1131">
        <ele>2357</ele>
        <time>2009-02-05T14:36:32Z</time>
      </trkpt>
      <trkpt lat="42.93103" lon="0.11315">
        <ele>2358</ele>
        <time>2009-02-05T14:36:35Z</time>
      </trkpt>
      <trkpt lat="42.93099" lon="0.11293">
        <ele>2363</ele>
        <time>2009-02-05T14:37:42Z</time>
      </trkpt>
      <trkpt lat="42.93103" lon="0.11285">
        <ele>2375</ele>
        <time>2009-02-05T14:39:01Z</time>
      </trkpt>
      <trkpt lat="42.93103" lon="0.11282">
        <ele>2375</ele>
        <time>2009-02-05T14:39:18Z</time>
      </trkpt>
      <trkpt lat="42.93114" lon="0.11278">
        <ele>2376</ele>
        <time>2009-02-05T14:39:31Z</time>
      </trkpt>
      <trkpt lat="42.93116" lon="0.11274">
        <ele>2376</ele>
        <time>2009-02-05T14:40:08Z</time>
      </trkpt>
      <trkpt lat="42.93116" lon="0.1127">
        <ele>2366</ele>
        <time>2009-02-05T14:41:45Z</time>
      </trkpt>
      <trkpt lat="42.93103" lon="0.1127">
        <ele>2371</ele>
        <time>2009-02-05T14:41:56Z</time>
      </trkpt>
      <trkpt lat="42.93112" lon="0.11263">
        <ele>2372</ele>
        <time>2009-02-05T14:42:19Z</time>
      </trkpt>
      <trkpt lat="42.93114" lon="0.11252">
        <ele>2372</ele>
        <time>2009-02-05T14:42:31Z</time>
      </trkpt>
      <trkpt lat="42.93114" lon="0.11248">
        <ele>2373</ele>
        <time>2009-02-05T14:42:34Z</time>
      </trkpt>
      <trkpt lat="42.93114" lon="0.11244">
        <ele>2376</ele>
        <time>2009-02-05T14:42:48Z</time>
      </trkpt>
      <trkpt lat="42.93112" lon="0.11237">
        <ele>2378</ele>
        <time>2009-02-05T14:42:57Z</time>
      </trkpt>
      <trkpt lat="42.93112" lon="0.11237">
        <ele>2382</ele>
        <time>2009-02-05T14:43:08Z</time>
      </trkpt>
      <trkpt lat="42.93112" lon="0.11235">
        <ele>2379</ele>
        <time>2009-02-05T14:43:24Z</time>
      </trkpt>
      <trkpt lat="42.93114" lon="0.11231">
        <ele>2380</ele>
        <time>2009-02-05T14:43:28Z</time>
      </trkpt>
      <trkpt lat="42.93114" lon="0.11231">
        <ele>2383</ele>
        <time>2009-02-05T14:43:37Z</time>
      </trkpt>
      <trkpt lat="42.93112" lon="0.11227">
        <ele>2385</ele>
        <time>2009-02-05T14:44:10Z</time>
      </trkpt>
      <trkpt lat="42.93114" lon="0.11231">
        <ele>2387</ele>
        <time>2009-02-05T14:45:13Z</time>
      </trkpt>
      <trkpt lat="42.93114" lon="0.11229">
        <ele>2386</ele>
        <time>2009-02-05T14:45:27Z</time>
      </trkpt>
      <trkpt lat="42.93114" lon="0.11231">
        <ele>2382</ele>
        <time>2009-02-05T14:45:58Z</time>
      </trkpt>
      <trkpt lat="42.93112" lon="0.11225">
        <ele>2380</ele>
        <time>2009-02-05T14:46:12Z</time>
      </trkpt>
      <trkpt lat="42.93114" lon="0.11235">
        <ele>2381</ele>
        <time>2009-02-05T14:47:07Z</time>
      </trkpt>
      <trkpt lat="42.9312" lon="0.11244">
        <ele>2379</ele>
        <time>2009-02-05T14:47:29Z</time>
      </trkpt>
      <trkpt lat="42.9312" lon="0.11246">
        <ele>2379</ele>
        <time>2009-02-05T14:47:43Z</time>
      </trkpt>
      <trkpt lat="42.93135" lon="0.11242">
        <ele>2382</ele>
        <time>2009-02-05T14:48:52Z</time>
      </trkpt>
      <trkpt lat="42.93152" lon="0.11255">
        <ele>2395</ele>
        <time>2009-02-05T14:51:58Z</time>
      </trkpt>
      <trkpt lat="42.93154" lon="0.11255">
        <ele>2396</ele>
        <time>2009-02-05T14:52:28Z</time>
      </trkpt>
      <trkpt lat="42.93154" lon="0.11255">
        <ele>2396</ele>
        <time>2009-02-05T14:52:47Z</time>
      </trkpt>
      <trkpt lat="42.93159" lon="0.11259">
        <ele>2396</ele>
        <time>2009-02-05T14:52:57Z</time>
      </trkpt>
      <trkpt lat="42.93161" lon="0.11257">
        <ele>2396</ele>
        <time>2009-02-05T14:53:33Z</time>
      </trkpt>
      <trkpt lat="42.93169" lon="0.11261">
        <ele>2404</ele>
        <time>2009-02-05T14:54:25Z</time>
      </trkpt>
      <trkpt lat="42.93172" lon="0.11259">
        <ele>2412</ele>
        <time>2009-02-05T14:55:09Z</time>
      </trkpt>
      <trkpt lat="42.93178" lon="0.11259">
        <ele>2412</ele>
        <time>2009-02-05T14:55:21Z</time>
      </trkpt>
      <trkpt lat="42.93178" lon="0.11257">
        <ele>2414</ele>
        <time>2009-02-05T14:55:50Z</time>
      </trkpt>
      <trkpt lat="42.9318" lon="0.11259">
        <ele>2415</ele>
        <time>2009-02-05T14:56:24Z</time>
      </trkpt>
      <trkpt lat="42.93182" lon="0.11255">
        <ele>2418</ele>
        <time>2009-02-05T14:56:46Z</time>
      </trkpt>
      <trkpt lat="42.93185" lon="0.11255">
        <ele>2419</ele>
        <time>2009-02-05T14:56:56Z</time>
      </trkpt>
      <trkpt lat="42.93182" lon="0.1125">
        <ele>2420</ele>
        <time>2009-02-05T14:57:09Z</time>
      </trkpt>
      <trkpt lat="42.93182" lon="0.1125">
        <ele>2425</ele>
        <time>2009-02-05T14:57:30Z</time>
      </trkpt>
      <trkpt lat="42.93195" lon="0.11246">
        <ele>2441</ele>
        <time>2009-02-05T14:59:47Z</time>
      </trkpt>
      <trkpt lat="42.93195" lon="0.11259">
        <ele>2441</ele>
        <time>2009-02-05T15:01:14Z</time>
      </trkpt>
      <trkpt lat="42.93195" lon="0.11257">
        <ele>2441</ele>
        <time>2009-02-05T15:01:31Z</time>
      </trkpt>
      <trkpt lat="42.93193" lon="0.11252">
        <ele>2443</ele>
        <time>2009-02-05T15:02:00Z</time>
      </trkpt>
      <trkpt lat="42.93193" lon="0.11252">
        <ele>2439</ele>
        <time>2009-02-05T15:02:08Z</time>
      </trkpt>
      <trkpt lat="42.93195" lon="0.11252">
        <ele>2437</ele>
        <time>2009-02-05T15:02:21Z</time>
      </trkpt>
      <trkpt lat="42.93195" lon="0.11252">
        <ele>2437</ele>
        <time>2009-02-05T15:02:40Z</time>
      </trkpt>
      <trkpt lat="42.93197" lon="0.11255">
        <ele>2436</ele>
        <time>2009-02-05T15:03:49Z</time>
      </trkpt>
      <trkpt lat="42.93197" lon="0.11255">
        <ele>2434</ele>
        <time>2009-02-05T15:04:03Z</time>
      </trkpt>
      <trkpt lat="42.932" lon="0.11255">
        <ele>2433</ele>
        <time>2009-02-05T15:04:18Z</time>
      </trkpt>
      <trkpt lat="42.93202" lon="0.11252">
        <ele>2432</ele>
        <time>2009-02-05T15:04:28Z</time>
      </trkpt>
      <trkpt lat="42.93197" lon="0.1125">
        <ele>2436</ele>
        <time>2009-02-05T15:04:42Z</time>
      </trkpt>
      <trkpt lat="42.93197" lon="0.11255">
        <ele>2440</ele>
        <time>2009-02-05T15:04:51Z</time>
      </trkpt>
      <trkpt lat="42.93197" lon="0.11255">
        <ele>2440</ele>
        <time>2009-02-05T15:05:04Z</time>
      </trkpt>
      <trkpt lat="42.93197" lon="0.11252">
        <ele>2439</ele>
        <time>2009-02-05T15:05:19Z</time>
      </trkpt>
      <trkpt lat="42.93197" lon="0.11255">
        <ele>2435</ele>
        <time>2009-02-05T15:05:30Z</time>
      </trkpt>
      <trkpt lat="42.93197" lon="0.11255">
        <ele>2435</ele>
        <time>2009-02-05T15:05:31Z</time>
      </trkpt>
      <trkpt lat="42.932" lon="0.11257">
        <ele>2432</ele>
        <time>2009-02-05T15:05:42Z</time>
      </trkpt>
      <trkpt lat="42.93191" lon="0.11263">
        <ele>2434</ele>
        <time>2009-02-05T15:06:00Z</time>
      </trkpt>
      <trkpt lat="42.93191" lon="0.11263">
        <ele>2435</ele>
        <time>2009-02-05T15:06:06Z</time>
      </trkpt>
      <trkpt lat="42.93193" lon="0.11265">
        <ele>2434</ele>
        <time>2009-02-05T15:06:08Z</time>
      </trkpt>
      <trkpt lat="42.93193" lon="0.11267">
        <ele>2431</ele>
        <time>2009-02-05T15:06:20Z</time>
      </trkpt>
      <trkpt lat="42.93195" lon="0.11265">
        <ele>2427</ele>
        <time>2009-02-05T15:06:54Z</time>
      </trkpt>
      <trkpt lat="42.932" lon="0.11265">
        <ele>2428</ele>
        <time>2009-02-05T15:07:01Z</time>
      </trkpt>
      <trkpt lat="42.932" lon="0.11259">
        <ele>2429</ele>
        <time>2009-02-05T15:07:08Z</time>
      </trkpt>
      <trkpt lat="42.932" lon="0.11259">
        <ele>2435</ele>
        <time>2009-02-05T15:07:18Z</time>
      </trkpt>
      <trkpt lat="42.93202" lon="0.11261">
        <ele>2441</ele>
        <time>2009-02-05T15:07:50Z</time>
      </trkpt>
      <trkpt lat="42.93208" lon="0.11282">
        <ele>2441</ele>
        <time>2009-02-05T15:07:58Z</time>
      </trkpt>
      <trkpt lat="42.93206" lon="0.1128">
        <ele>2439</ele>
        <time>2009-02-05T15:08:06Z</time>
      </trkpt>
      <trkpt lat="42.93197" lon="0.11263">
        <ele>2438</ele>
        <time>2009-02-05T15:08:55Z</time>
      </trkpt>
      <trkpt lat="42.93195" lon="0.11265">
        <ele>2438</ele>
        <time>2009-02-05T15:09:08Z</time>
      </trkpt>
      <trkpt lat="42.93193" lon="0.11265">
        <ele>2439</ele>
        <time>2009-02-05T15:09:16Z</time>
      </trkpt>
      <trkpt lat="42.93193" lon="0.11261">
        <ele>2439</ele>
        <time>2009-02-05T15:09:20Z</time>
      </trkpt>
      <trkpt lat="42.93195" lon="0.11257">
        <ele>2440</ele>
        <time>2009-02-05T15:09:28Z</time>
      </trkpt>
      <trkpt lat="42.93195" lon="0.11255">
        <ele>2442</ele>
        <time>2009-02-05T15:09:34Z</time>
      </trkpt>
      <trkpt lat="42.93197" lon="0.11252">
        <ele>2444</ele>
        <time>2009-02-05T15:09:43Z</time>
      </trkpt>
      <trkpt lat="42.93197" lon="0.11248">
        <ele>2445</ele>
        <time>2009-02-05T15:10:07Z</time>
      </trkpt>
      <trkpt lat="42.93197" lon="0.11244">
        <ele>2445</ele>
        <time>2009-02-05T15:10:34Z</time>
      </trkpt>
      <trkpt lat="42.93197" lon="0.11246">
        <ele>2447</ele>
        <time>2009-02-05T15:11:01Z</time>
      </trkpt>
      <trkpt lat="42.932" lon="0.11246">
        <ele>2447</ele>
        <time>2009-02-05T15:11:20Z</time>
      </trkpt>
      <trkpt lat="42.93197" lon="0.11248">
        <ele>2448</ele>
        <time>2009-02-05T15:11:47Z</time>
      </trkpt>
      <trkpt lat="42.93191" lon="0.11252">
        <ele>2447</ele>
        <time>2009-02-05T15:12:09Z</time>
      </trkpt>
      <trkpt lat="42.93193" lon="0.11252">
        <ele>2449</ele>
        <time>2009-02-05T15:12:51Z</time>
      </trkpt>
      <trkpt lat="42.93212" lon="0.11272">
        <ele>2446</ele>
        <time>2009-02-05T15:15:11Z</time>
      </trkpt>
      <trkpt lat="42.93191" lon="0.11257">
        <ele>2456</ele>
        <time>2009-02-05T15:19:23Z</time>
      </trkpt>
      <trkpt lat="42.93191" lon="0.11255">
        <ele>2457</ele>
        <time>2009-02-05T15:19:39Z</time>
      </trkpt>
      <trkpt lat="42.93193" lon="0.1125">
        <ele>2453</ele>
        <time>2009-02-05T15:20:26Z</time>
      </trkpt>
      <trkpt lat="42.93193" lon="0.11252">
        <ele>2450</ele>
        <time>2009-02-05T15:20:57Z</time>
      </trkpt>
      <trkpt lat="42.93191" lon="0.11252">
        <ele>2451</ele>
        <time>2009-02-05T15:21:10Z</time>
      </trkpt>
      <trkpt lat="42.93187" lon="0.11255">
        <ele>2446</ele>
        <time>2009-02-05T15:21:53Z</time>
      </trkpt>
      <trkpt lat="42.93187" lon="0.11252">
        <ele>2447</ele>
        <time>2009-02-05T15:22:11Z</time>
      </trkpt>
      <trkpt lat="42.93187" lon="0.1125">
        <ele>2450</ele>
        <time>2009-02-05T15:23:23Z</time>
      </trkpt>
      <trkpt lat="42.93189" lon="0.11257">
        <ele>2445</ele>
        <time>2009-02-05T15:24:22Z</time>
      </trkpt>
      <trkpt lat="42.93185" lon="0.11248">
        <ele>2454</ele>
        <time>2009-02-05T15:25:59Z</time>
      </trkpt>
      <trkpt lat="42.93185" lon="0.1124">
        <ele>2453</ele>
        <time>2009-02-05T15:26:02Z</time>
      </trkpt>
      <trkpt lat="42.93182" lon="0.11231">
        <ele>2454</ele>
        <time>2009-02-05T15:26:05Z</time>
      </trkpt>
      <trkpt lat="42.9318" lon="0.11225">
        <ele>2454</ele>
        <time>2009-02-05T15:26:06Z</time>
      </trkpt>
      <trkpt lat="42.93176" lon="0.11225">
        <ele>2453</ele>
        <time>2009-02-05T15:26:09Z</time>
      </trkpt>
      <trkpt lat="42.93172" lon="0.11225">
        <ele>2453</ele>
        <time>2009-02-05T15:26:12Z</time>
      </trkpt>
      <trkpt lat="42.93169" lon="0.11218">
        <ele>2452</ele>
        <time>2009-02-05T15:26:15Z</time>
      </trkpt>
      <trkpt lat="42.93172" lon="0.11216">
        <ele>2447</ele>
        <time>2009-02-05T15:26:23Z</time>
      </trkpt>
      <trkpt lat="42.93167" lon="0.11214">
        <ele>2446</ele>
        <time>2009-02-05T15:26:33Z</time>
      </trkpt>
      <trkpt lat="42.93165" lon="0.11214">
        <ele>2446</ele>
        <time>2009-02-05T15:26:35Z</time>
      </trkpt>
      <trkpt lat="42.93163" lon="0.11214">
        <ele>2445</ele>
        <time>2009-02-05T15:26:38Z</time>
      </trkpt>
      <trkpt lat="42.93159" lon="0.11212">
        <ele>2444</ele>
        <time>2009-02-05T15:26:40Z</time>
      </trkpt>
      <trkpt lat="42.93152" lon="0.11214">
        <ele>2439</ele>
        <time>2009-02-05T15:26:46Z</time>
      </trkpt>
      <trkpt lat="42.93137" lon="0.11225">
        <ele>2408</ele>
        <time>2009-02-05T15:28:12Z</time>
      </trkpt>
      <trkpt lat="42.9312" lon="0.11231">
        <ele>2407</ele>
        <time>2009-02-05T15:28:22Z</time>
      </trkpt>
      <trkpt lat="42.93109" lon="0.11244">
        <ele>2407</ele>
        <time>2009-02-05T15:28:34Z</time>
      </trkpt>
      <trkpt lat="42.93099" lon="0.1125">
        <ele>2401</ele>
        <time>2009-02-05T15:28:55Z</time>
      </trkpt>
      <trkpt lat="42.93101" lon="0.11259">
        <ele>2396</ele>
        <time>2009-02-05T15:30:11Z</time>
      </trkpt>
      <trkpt lat="42.93099" lon="0.11259">
        <ele>2396</ele>
        <time>2009-02-05T15:30:13Z</time>
      </trkpt>
      <trkpt lat="42.93088" lon="0.11261">
        <ele>2387</ele>
        <time>2009-02-05T15:30:28Z</time>
      </trkpt>
      <trkpt lat="42.9309" lon="0.1127">
        <ele>2381</ele>
        <time>2009-02-05T15:30:34Z</time>
      </trkpt>
      <trkpt lat="42.93086" lon="0.11272">
        <ele>2380</ele>
        <time>2009-02-05T15:30:37Z</time>
      </trkpt>
      <trkpt lat="42.9309" lon="0.11293">
        <ele>2379</ele>
        <time>2009-02-05T15:30:41Z</time>
      </trkpt>
      <trkpt lat="42.93092" lon="0.11325">
        <ele>2378</ele>
        <time>2009-02-05T15:30:47Z</time>
      </trkpt>
      <trkpt lat="42.93054" lon="0.1131">
        <ele>2378</ele>
        <time>2009-02-05T15:30:52Z</time>
      </trkpt>
      <trkpt lat="42.93015" lon="0.11295">
        <ele>2377</ele>
        <time>2009-02-05T15:30:59Z</time>
      </trkpt>
      <trkpt lat="42.93028" lon="0.11317">
        <ele>2377</ele>
        <time>2009-02-05T15:31:07Z</time>
      </trkpt>
      <trkpt lat="42.93028" lon="0.1133">
        <ele>2374</ele>
        <time>2009-02-05T15:31:27Z</time>
      </trkpt>
      <trkpt lat="42.9288" lon="0.11413">
        <ele>2374</ele>
        <time>2009-02-05T15:31:35Z</time>
      </trkpt>
      <trkpt lat="42.92884" lon="0.11418">
        <ele>2370</ele>
        <time>2009-02-05T15:31:46Z</time>
      </trkpt>
      <trkpt lat="42.92878" lon="0.11411">
        <ele>2352</ele>
        <time>2009-02-05T15:33:48Z</time>
      </trkpt>
      <trkpt lat="42.92845" lon="0.11422">
        <ele>2352</ele>
        <time>2009-02-05T15:34:10Z</time>
      </trkpt>
      <trkpt lat="42.92835" lon="0.11426">
        <ele>2352</ele>
        <time>2009-02-05T15:34:40Z</time>
      </trkpt>
      <trkpt lat="42.92818" lon="0.11428">
        <ele>2352</ele>
        <time>2009-02-05T15:34:44Z</time>
      </trkpt>
      <trkpt lat="42.9253" lon="0.11478">
        <ele>2352</ele>
        <time>2009-02-05T15:35:04Z</time>
      </trkpt>
      <trkpt lat="42.92545" lon="0.11467">
        <ele>2352</ele>
        <time>2009-02-05T15:35:11Z</time>
      </trkpt>
      <trkpt lat="42.92515" lon="0.11484">
        <ele>2352</ele>
        <time>2009-02-05T15:35:23Z</time>
      </trkpt>
      <trkpt lat="42.92633" lon="0.11428">
        <ele>2188</ele>
        <time>2009-02-05T15:35:47Z</time>
      </trkpt>
      <trkpt lat="42.92571" lon="0.11458">
        <ele>2293</ele>
        <time>2009-02-05T15:36:10Z</time>
      </trkpt>
      <trkpt lat="42.92556" lon="0.11484">
        <ele>2293</ele>
        <time>2009-02-05T15:36:20Z</time>
      </trkpt>
      <trkpt lat="42.92549" lon="0.11482">
        <ele>2293</ele>
        <time>2009-02-05T15:36:23Z</time>
      </trkpt>
      <trkpt lat="42.92545" lon="0.11491">
        <ele>2293</ele>
        <time>2009-02-05T15:36:25Z</time>
      </trkpt>
      <trkpt lat="42.92543" lon="0.1154">
        <ele>2022</ele>
        <time>2009-02-05T15:36:37Z</time>
      </trkpt>
      <trkpt lat="42.92552" lon="0.11536">
        <ele>2022</ele>
        <time>2009-02-05T15:37:00Z</time>
      </trkpt>
      <trkpt lat="42.92519" lon="0.11531">
        <ele>2022</ele>
        <time>2009-02-05T15:37:05Z</time>
      </trkpt>
      <trkpt lat="42.92483" lon="0.11525">
        <ele>2080</ele>
        <time>2009-02-05T15:37:11Z</time>
      </trkpt>
      <trkpt lat="42.92425" lon="0.11523">
        <ele>2087</ele>
        <time>2009-02-05T15:37:22Z</time>
      </trkpt>
      <trkpt lat="42.92425" lon="0.11523">
        <ele>2086</ele>
        <time>2009-02-05T15:37:26Z</time>
      </trkpt>
      <trkpt lat="42.92423" lon="0.11531">
        <ele>2088</ele>
        <time>2009-02-05T15:37:29Z</time>
      </trkpt>
      <trkpt lat="42.92421" lon="0.1154">
        <ele>2093</ele>
        <time>2009-02-05T15:37:36Z</time>
      </trkpt>
      <trkpt lat="42.9241" lon="0.11551">
        <ele>2104</ele>
        <time>2009-02-05T15:37:46Z</time>
      </trkpt>
      <trkpt lat="42.92386" lon="0.11574">
        <ele>2126</ele>
        <time>2009-02-05T15:38:38Z</time>
      </trkpt>
      <trkpt lat="42.92367" lon="0.11568">
        <ele>2128</ele>
        <time>2009-02-05T15:38:44Z</time>
      </trkpt>
      <trkpt lat="42.92348" lon="0.11576">
        <ele>2128</ele>
        <time>2009-02-05T15:38:59Z</time>
      </trkpt>
      <trkpt lat="42.92337" lon="0.1157">
        <ele>2130</ele>
        <time>2009-02-05T15:39:03Z</time>
      </trkpt>
      <trkpt lat="42.92292" lon="0.11516">
        <ele>2134</ele>
        <time>2009-02-05T15:39:15Z</time>
      </trkpt>
      <trkpt lat="42.92234" lon="0.11467">
        <ele>2134</ele>
        <time>2009-02-05T15:39:30Z</time>
      </trkpt>
      <trkpt lat="42.9215" lon="0.11411">
        <ele>2134</ele>
        <time>2009-02-05T15:39:50Z</time>
      </trkpt>
      <trkpt lat="42.92054" lon="0.11381">
        <ele>2133</ele>
        <time>2009-02-05T15:40:10Z</time>
      </trkpt>
      <trkpt lat="42.91846" lon="0.11594">
        <ele>2129</ele>
        <time>2009-02-05T15:40:24Z</time>
      </trkpt>
      <trkpt lat="42.91809" lon="0.11589">
        <ele>2127</ele>
        <time>2009-02-05T15:40:27Z</time>
      </trkpt>
      <trkpt lat="42.91835" lon="0.11581">
        <ele>2119</ele>
        <time>2009-02-05T15:40:33Z</time>
      </trkpt>
      <trkpt lat="42.9185" lon="0.11591">
        <ele>2092</ele>
        <time>2009-02-05T15:40:49Z</time>
      </trkpt>
      <trkpt lat="42.9185" lon="0.11591">
        <ele>2029</ele>
        <time>2009-02-05T15:44:09Z</time>
      </trkpt>
      <trkpt lat="42.91876" lon="0.11619">
        <ele>2026</ele>
        <time>2009-02-05T15:44:12Z</time>
      </trkpt>
      <trkpt lat="42.91863" lon="0.11624">
        <ele>2042</ele>
        <time>2009-02-05T15:44:19Z</time>
      </trkpt>
      <trkpt lat="42.91865" lon="0.11626">
        <ele>2036</ele>
        <time>2009-02-05T15:44:24Z</time>
      </trkpt>
      <trkpt lat="42.91865" lon="0.1163">
        <ele>2036</ele>
        <time>2009-02-05T15:44:28Z</time>
      </trkpt>
      <trkpt lat="42.91873" lon="0.11624">
        <ele>2053</ele>
        <time>2009-02-05T15:44:40Z</time>
      </trkpt>
      <trkpt lat="42.91858" lon="0.11619">
        <ele>2037</ele>
        <time>2009-02-05T15:45:40Z</time>
      </trkpt>
      <trkpt lat="42.91869" lon="0.11636">
        <ele>2005</ele>
        <time>2009-02-05T15:46:37Z</time>
      </trkpt>
      <trkpt lat="42.91848" lon="0.11628">
        <ele>2009</ele>
        <time>2009-02-05T15:46:42Z</time>
      </trkpt>
      <trkpt lat="42.91841" lon="0.1163">
        <ele>2013</ele>
        <time>2009-02-05T15:46:48Z</time>
      </trkpt>
      <trkpt lat="42.91835" lon="0.11628">
        <ele>2015</ele>
        <time>2009-02-05T15:46:51Z</time>
      </trkpt>
      <trkpt lat="42.91833" lon="0.11632">
        <ele>2015</ele>
        <time>2009-02-05T15:46:53Z</time>
      </trkpt>
      <trkpt lat="42.91826" lon="0.11654">
        <ele>2014</ele>
        <time>2009-02-05T15:47:00Z</time>
      </trkpt>
      <trkpt lat="42.91824" lon="0.1166">
        <ele>2014</ele>
        <time>2009-02-05T15:47:03Z</time>
      </trkpt>
      <trkpt lat="42.91824" lon="0.11667">
        <ele>2014</ele>
        <time>2009-02-05T15:47:05Z</time>
      </trkpt>
      <trkpt lat="42.91816" lon="0.11679">
        <ele>2014</ele>
        <time>2009-02-05T15:47:07Z</time>
      </trkpt>
      <trkpt lat="42.91796" lon="0.11729">
        <ele>2014</ele>
        <time>2009-02-05T15:47:14Z</time>
      </trkpt>
      <trkpt lat="42.91792" lon="0.11737">
        <ele>2013</ele>
        <time>2009-02-05T15:47:18Z</time>
      </trkpt>
      <trkpt lat="42.91788" lon="0.11731">
        <ele>2013</ele>
        <time>2009-02-05T15:47:22Z</time>
      </trkpt>
      <trkpt lat="42.91792" lon="0.11729">
        <ele>2014</ele>
        <time>2009-02-05T15:47:33Z</time>
      </trkpt>
      <trkpt lat="42.91794" lon="0.11729">
        <ele>2020</ele>
        <time>2009-02-05T15:47:45Z</time>
      </trkpt>
      <trkpt lat="42.918" lon="0.11739">
        <ele>2021</ele>
        <time>2009-02-05T15:47:48Z</time>
      </trkpt>
      <trkpt lat="42.91803" lon="0.11748">
        <ele>2020</ele>
        <time>2009-02-05T15:47:52Z</time>
      </trkpt>
      <trkpt lat="42.91803" lon="0.11761">
        <ele>2020</ele>
        <time>2009-02-05T15:47:57Z</time>
      </trkpt>
      <trkpt lat="42.91803" lon="0.11772">
        <ele>2020</ele>
        <time>2009-02-05T15:48:00Z</time>
      </trkpt>
      <trkpt lat="42.91779" lon="0.11772">
        <ele>2019</ele>
        <time>2009-02-05T15:48:02Z</time>
      </trkpt>
      <trkpt lat="42.91753" lon="0.11789">
        <ele>2016</ele>
        <time>2009-02-05T15:48:06Z</time>
      </trkpt>
      <trkpt lat="42.91734" lon="0.11789">
        <ele>2012</ele>
        <time>2009-02-05T15:48:09Z</time>
      </trkpt>
      <trkpt lat="42.91725" lon="0.1178">
        <ele>2010</ele>
        <time>2009-02-05T15:48:12Z</time>
      </trkpt>
      <trkpt lat="42.91725" lon="0.1178">
        <ele>2009</ele>
        <time>2009-02-05T15:48:13Z</time>
      </trkpt>
      <trkpt lat="42.91728" lon="0.11793">
        <ele>1999</ele>
        <time>2009-02-05T15:48:22Z</time>
      </trkpt>
      <trkpt lat="42.91728" lon="0.11819">
        <ele>1987</ele>
        <time>2009-02-05T15:48:49Z</time>
      </trkpt>
      <trkpt lat="42.91721" lon="0.11821">
        <ele>1987</ele>
        <time>2009-02-05T15:48:51Z</time>
      </trkpt>
      <trkpt lat="42.91719" lon="0.11825">
        <ele>1987</ele>
        <time>2009-02-05T15:48:54Z</time>
      </trkpt>
      <trkpt lat="42.9171" lon="0.11825">
        <ele>1986</ele>
        <time>2009-02-05T15:48:56Z</time>
      </trkpt>
      <trkpt lat="42.91702" lon="0.11823">
        <ele>1984</ele>
        <time>2009-02-05T15:48:58Z</time>
      </trkpt>
      <trkpt lat="42.91698" lon="0.11823">
        <ele>1983</ele>
        <time>2009-02-05T15:48:59Z</time>
      </trkpt>
      <trkpt lat="42.91685" lon="0.11838">
        <ele>1981</ele>
        <time>2009-02-05T15:49:02Z</time>
      </trkpt>
      <trkpt lat="42.91678" lon="0.11842">
        <ele>1978</ele>
        <time>2009-02-05T15:49:04Z</time>
      </trkpt>
      <trkpt lat="42.91659" lon="0.11842">
        <ele>1978</ele>
        <time>2009-02-05T15:49:08Z</time>
      </trkpt>
      <trkpt lat="42.9165" lon="0.11849">
        <ele>1978</ele>
        <time>2009-02-05T15:49:10Z</time>
      </trkpt>
      <trkpt lat="42.91648" lon="0.11853">
        <ele>1977</ele>
        <time>2009-02-05T15:49:11Z</time>
      </trkpt>
      <trkpt lat="42.91625" lon="0.11851">
        <ele>1979</ele>
        <time>2009-02-05T15:49:16Z</time>
      </trkpt>
      <trkpt lat="42.91625" lon="0.11853">
        <ele>1979</ele>
        <time>2009-02-05T15:49:23Z</time>
      </trkpt>
      <trkpt lat="42.91627" lon="0.11858">
        <ele>1975</ele>
        <time>2009-02-05T15:49:26Z</time>
      </trkpt>
      <trkpt lat="42.91629" lon="0.11864">
        <ele>1968</ele>
        <time>2009-02-05T15:49:43Z</time>
      </trkpt>
      <trkpt lat="42.91629" lon="0.11866">
        <ele>1967</ele>
        <time>2009-02-05T15:49:45Z</time>
      </trkpt>
      <trkpt lat="42.91625" lon="0.11864">
        <ele>1965</ele>
        <time>2009-02-05T15:49:48Z</time>
      </trkpt>
      <trkpt lat="42.91586" lon="0.11851">
        <ele>1960</ele>
        <time>2009-02-05T15:49:54Z</time>
      </trkpt>
      <trkpt lat="42.91573" lon="0.11825">
        <ele>1958</ele>
        <time>2009-02-05T15:49:59Z</time>
      </trkpt>
      <trkpt lat="42.91569" lon="0.11817">
        <ele>1955</ele>
        <time>2009-02-05T15:50:02Z</time>
      </trkpt>
      <trkpt lat="42.91569" lon="0.11817">
        <ele>1951</ele>
        <time>2009-02-05T15:50:03Z</time>
      </trkpt>
      <trkpt lat="42.91569" lon="0.11823">
        <ele>1949</ele>
        <time>2009-02-05T15:50:07Z</time>
      </trkpt>
      <trkpt lat="42.91569" lon="0.1183">
        <ele>1946</ele>
        <time>2009-02-05T15:50:14Z</time>
      </trkpt>
      <trkpt lat="42.91569" lon="0.11838">
        <ele>1946</ele>
        <time>2009-02-05T15:50:16Z</time>
      </trkpt>
      <trkpt lat="42.91552" lon="0.1183">
        <ele>1943</ele>
        <time>2009-02-05T15:50:19Z</time>
      </trkpt>
      <trkpt lat="42.91522" lon="0.1181">
        <ele>1941</ele>
        <time>2009-02-05T15:50:23Z</time>
      </trkpt>
      <trkpt lat="42.91511" lon="0.11825">
        <ele>1940</ele>
        <time>2009-02-05T15:50:27Z</time>
      </trkpt>
      <trkpt lat="42.91502" lon="0.11821">
        <ele>1938</ele>
        <time>2009-02-05T15:50:30Z</time>
      </trkpt>
      <trkpt lat="42.91496" lon="0.11817">
        <ele>1938</ele>
        <time>2009-02-05T15:50:34Z</time>
      </trkpt>
      <trkpt lat="42.91498" lon="0.11823">
        <ele>1927</ele>
        <time>2009-02-05T15:50:41Z</time>
      </trkpt>
      <trkpt lat="42.91498" lon="0.1183">
        <ele>1926</ele>
        <time>2009-02-05T15:50:44Z</time>
      </trkpt>
      <trkpt lat="42.91487" lon="0.1183">
        <ele>1924</ele>
        <time>2009-02-05T15:50:48Z</time>
      </trkpt>
      <trkpt lat="42.91481" lon="0.11832">
        <ele>1922</ele>
        <time>2009-02-05T15:50:50Z</time>
      </trkpt>
      <trkpt lat="42.9147" lon="0.11825">
        <ele>1919</ele>
        <time>2009-02-05T15:50:53Z</time>
      </trkpt>
      <trkpt lat="42.91459" lon="0.11819">
        <ele>1918</ele>
        <time>2009-02-05T15:50:55Z</time>
      </trkpt>
      <trkpt lat="42.91431" lon="0.1181">
        <ele>1916</ele>
        <time>2009-02-05T15:51:00Z</time>
      </trkpt>
      <trkpt lat="42.91416" lon="0.11808">
        <ele>1913</ele>
        <time>2009-02-05T15:51:03Z</time>
      </trkpt>
      <trkpt lat="42.91414" lon="0.11806">
        <ele>1912</ele>
        <time>2009-02-05T15:51:04Z</time>
      </trkpt>
      <trkpt lat="42.91408" lon="0.11795">
        <ele>1909</ele>
        <time>2009-02-05T15:51:07Z</time>
      </trkpt>
      <trkpt lat="42.91391" lon="0.11782">
        <ele>1907</ele>
        <time>2009-02-05T15:51:13Z</time>
      </trkpt>
      <trkpt lat="42.91389" lon="0.11782">
        <ele>1905</ele>
        <time>2009-02-05T15:51:15Z</time>
      </trkpt>
      <trkpt lat="42.91384" lon="0.11782">
        <ele>1904</ele>
        <time>2009-02-05T15:51:17Z</time>
      </trkpt>
      <trkpt lat="42.91373" lon="0.11795">
        <ele>1903</ele>
        <time>2009-02-05T15:51:19Z</time>
      </trkpt>
      <trkpt lat="42.91367" lon="0.11787">
        <ele>1900</ele>
        <time>2009-02-05T15:51:21Z</time>
      </trkpt>
      <trkpt lat="42.91365" lon="0.11778">
        <ele>1898</ele>
        <time>2009-02-05T15:51:22Z</time>
      </trkpt>
      <trkpt lat="42.91348" lon="0.11763">
        <ele>1894</ele>
        <time>2009-02-05T15:51:26Z</time>
      </trkpt>
      <trkpt lat="42.91316" lon="0.11746">
        <ele>1885</ele>
        <time>2009-02-05T15:51:32Z</time>
      </trkpt>
      <trkpt lat="42.91311" lon="0.11744">
        <ele>1884</ele>
        <time>2009-02-05T15:51:34Z</time>
      </trkpt>
      <trkpt lat="42.91307" lon="0.11742">
        <ele>1882</ele>
        <time>2009-02-05T15:51:37Z</time>
      </trkpt>
      <trkpt lat="42.91303" lon="0.11735">
        <ele>1880</ele>
        <time>2009-02-05T15:51:40Z</time>
      </trkpt>
      <trkpt lat="42.91298" lon="0.11733">
        <ele>1880</ele>
        <time>2009-02-05T15:51:43Z</time>
      </trkpt>
      <trkpt lat="42.91294" lon="0.11733">
        <ele>1877</ele>
        <time>2009-02-05T15:51:49Z</time>
      </trkpt>
      <trkpt lat="42.91294" lon="0.11739">
        <ele>1870</ele>
        <time>2009-02-05T15:51:53Z</time>
      </trkpt>
      <trkpt lat="42.91296" lon="0.11744">
        <ele>1864</ele>
        <time>2009-02-05T15:51:56Z</time>
      </trkpt>
      <trkpt lat="42.91298" lon="0.11748">
        <ele>1846</ele>
        <time>2009-02-05T15:52:14Z</time>
      </trkpt>
      <trkpt lat="42.91303" lon="0.11755">
        <ele>1845</ele>
        <time>2009-02-05T15:52:29Z</time>
      </trkpt>
      <trkpt lat="42.91296" lon="0.11757">
        <ele>1847</ele>
        <time>2009-02-05T15:52:32Z</time>
      </trkpt>
      <trkpt lat="42.91294" lon="0.11761">
        <ele>1836</ele>
        <time>2009-02-05T15:52:36Z</time>
      </trkpt>
      <trkpt lat="42.91281" lon="0.11755">
        <ele>1834</ele>
        <time>2009-02-05T15:52:41Z</time>
      </trkpt>
      <trkpt lat="42.91279" lon="0.1175">
        <ele>1834</ele>
        <time>2009-02-05T15:52:43Z</time>
      </trkpt>
      <trkpt lat="42.91279" lon="0.11748">
        <ele>1835</ele>
        <time>2009-02-05T15:52:50Z</time>
      </trkpt>
      <trkpt lat="42.91281" lon="0.11752">
        <ele>1815</ele>
        <time>2009-02-05T15:53:05Z</time>
      </trkpt>
      <trkpt lat="42.91275" lon="0.11742">
        <ele>1815</ele>
        <time>2009-02-05T15:53:22Z</time>
      </trkpt>
      <trkpt lat="42.91253" lon="0.11727">
        <ele>1813</ele>
        <time>2009-02-05T15:53:26Z</time>
      </trkpt>
      <trkpt lat="42.91249" lon="0.1172">
        <ele>1815</ele>
        <time>2009-02-05T15:53:27Z</time>
      </trkpt>
      <trkpt lat="42.91225" lon="0.11703">
        <ele>1820</ele>
        <time>2009-02-05T15:53:35Z</time>
      </trkpt>
      <trkpt lat="42.91191" lon="0.11767">
        <ele>1851</ele>
        <time>2009-02-05T15:54:15Z</time>
      </trkpt>
      <trkpt lat="42.91165" lon="0.11746">
        <ele>1850</ele>
        <time>2009-02-05T15:54:17Z</time>
      </trkpt>
      <trkpt lat="42.91088" lon="0.11707">
        <ele>1850</ele>
        <time>2009-02-05T15:54:23Z</time>
      </trkpt>
      <trkpt lat="42.91142" lon="0.118">
        <ele>1816</ele>
        <time>2009-02-05T15:54:26Z</time>
      </trkpt>
      <trkpt lat="42.91118" lon="0.11793">
        <ele>1815</ele>
        <time>2009-02-05T15:54:32Z</time>
      </trkpt>
      <trkpt lat="42.91086" lon="0.11791">
        <ele>1815</ele>
        <time>2009-02-05T15:54:39Z</time>
      </trkpt>
      <trkpt lat="42.91073" lon="0.11791">
        <ele>1815</ele>
        <time>2009-02-05T15:54:41Z</time>
      </trkpt>
      <trkpt lat="42.91017" lon="0.11789">
        <ele>1815</ele>
        <time>2009-02-05T15:54:48Z</time>
      </trkpt>
      <trkpt lat="42.91024" lon="0.11797">
        <ele>1815</ele>
        <time>2009-02-05T15:54:50Z</time>
      </trkpt>
      <trkpt lat="42.91067" lon="0.11847">
        <ele>1777</ele>
        <time>2009-02-05T15:54:51Z</time>
      </trkpt>
      <trkpt lat="42.91131" lon="0.1193">
        <ele>1699</ele>
        <time>2009-02-05T15:54:54Z</time>
      </trkpt>
      <trkpt lat="42.91114" lon="0.11873">
        <ele>1708</ele>
        <time>2009-02-05T15:55:00Z</time>
      </trkpt>
      <trkpt lat="42.91103" lon="0.11877">
        <ele>1711</ele>
        <time>2009-02-05T15:55:10Z</time>
      </trkpt>
      <trkpt lat="42.91097" lon="0.11868">
        <ele>1715</ele>
        <time>2009-02-05T15:55:16Z</time>
      </trkpt>
      <trkpt lat="42.9109" lon="0.11862">
        <ele>1716</ele>
        <time>2009-02-05T15:55:18Z</time>
      </trkpt>
      <trkpt lat="42.9108" lon="0.11845">
        <ele>1714</ele>
        <time>2009-02-05T15:55:21Z</time>
      </trkpt>
      <trkpt lat="42.91062" lon="0.11823">
        <ele>1710</ele>
        <time>2009-02-05T15:55:25Z</time>
      </trkpt>
      <trkpt lat="42.91045" lon="0.11797">
        <ele>1706</ele>
        <time>2009-02-05T15:55:29Z</time>
      </trkpt>
      <trkpt lat="42.91045" lon="0.11797">
        <ele>1706</ele>
      </trkpt>
    </trkseg>
  </trk>
</gpx>